Observation data for Brownfield on 03/01/2021      Previous  Date  Next       Current Mesonet Observations  Soil Data  Daily Summary Page  Observations in Plain Language
KBWS 010600Z 05022G27KT 06/M11 A301 RMK A01 T00641107  RH  028%=      5-min Rain = 0
KBWS 010601Z 05022G30KT 06/M11 A301 RMK A01 T00641107  RH  028%=      5-min Rain = 0
KBWS 010602Z 05022G27KT 06/M11 A301 RMK A01 T00641106  RH  028%=      5-min Rain = 0
KBWS 010603Z 06021KT 06/M10 A301 RMK A01 T00641104  RH  029%=      5-min Rain = 0
KBWS 010604Z 06021KT 06/M10 A301 RMK A01 T00631104  RH  029%=      5-min Rain = 0
KBWS 010605Z 05020G28KT 06/M11 A301 RMK A01 T00631105  RH  029%=      5-min Rain = 0
KBWS 010606Z 05023KT 06/M10 A301 RMK A01 T00631104  RH  029%=      5-min Rain = 0
KBWS 010607Z 05020KT 06/M11 A301 RMK A01 T00631105  RH  029%=      5-min Rain = 0
KBWS 010608Z 05021KT 06/M11 A301 RMK A01 T00631105  RH  029%=      5-min Rain = 0
KBWS 010609Z 06020G25KT 06/M10 A301 RMK A01 T00621104  RH  029%=      5-min Rain = 0
KBWS 010610Z 06022G28KT 06/M10 A301 RMK A01 T00621103  RH  029%=      5-min Rain = 0
KBWS 010611Z 05021KT 06/M10 A301 RMK A01 T00621103  RH  030%=      5-min Rain = 0
KBWS 010612Z 06020G28KT 06/M10 A3011 RMK A01 T00621103  RH  030%=      5-min Rain = 0
KBWS 010613Z 06024G30KT 06/M10 A301 RMK A01 T00621103  RH  030%=      5-min Rain = 0
KBWS 010614Z 06019G24KT 06/M10 A3011 RMK A01 T00621103  RH  030%=      5-min Rain = 0
KBWS 010615Z 06022G29KT 06/M10 A301 RMK A01 T00611101  RH  030%=      5-min Rain = 0
KBWS 010616Z 06023G28KT 06/M10 A301 RMK A01 T00611103  RH  030%=      5-min Rain = 0
KBWS 010617Z 06024G34KT 06/M10 A301 RMK A01 T00611103  RH  030%=      5-min Rain = 0
KBWS 010618Z 05022G27KT 06/M11 A301 RMK A01 T00611105  RH  029%=      5-min Rain = 0
KBWS 010619Z 05023KT 06/M10 A301 RMK A01 T00601104  RH  030%=      5-min Rain = 0
KBWS 010620Z 06024G29KT 06/M10 A301 RMK A01 T00601103  RH  030%=      5-min Rain = 0
KBWS 010621Z 06024G29KT 06/M10 A3009 RMK A01 T00601104  RH  030%=      5-min Rain = 0
KBWS 010622Z 06023G30KT 06/M10 A301 RMK A01 T00591103  RH  030%=      5-min Rain = 0
KBWS 010623Z 06021KT 06/M10 A301 RMK A01 T00591101  RH  031%=      5-min Rain = 0
KBWS 010624Z 05023G28KT 06/M10 A301 RMK A01 T00591102  RH  030%=      5-min Rain = 0
KBWS 010625Z 05024G30KT 06/M10 A301 RMK A01 T00581104  RH  030%=      5-min Rain = 0
KBWS 010626Z 05024G29KT 06/M10 A301 RMK A01 T00581104  RH  030%=      5-min Rain = 0
KBWS 010627Z 05022G28KT 06/M10 A301 RMK A01 T00581103  RH  030%=      5-min Rain = 0
KBWS 010628Z 05023G28KT 06/M10 A301 RMK A01 T00581102  RH  030%=      5-min Rain = 0
KBWS 010629Z 05023G28KT 06/M10 A301 RMK A01 T00581104  RH  030%=      5-min Rain = 0
KBWS 010630Z 05023G28KT 06/M10 A301 RMK A01 T00571103  RH  031%=      5-min Rain = 0
KBWS 010631Z 05025G30KT 06/M10 A301 RMK A01 T00571103  RH  031%=      5-min Rain = 0
KBWS 010632Z 05025G31KT 06/M10 A3009 RMK A01 T00571103  RH  031%=      5-min Rain = 0
KBWS 010633Z 05023KT 06/M10 A3009 RMK A01 T00571102  RH  031%=      5-min Rain = 0
KBWS 010634Z 05022G28KT 06/M10 A3009 RMK A01 T00571102  RH  031%=      5-min Rain = 0
KBWS 010635Z 05023G29KT 06/M10 A3009 RMK A01 T00561102  RH  031%=      5-min Rain = 0
KBWS 010636Z 05024G29KT 06/M10 A3009 RMK A01 T00571103  RH  031%=      5-min Rain = 0
KBWS 010637Z 05024G30KT 06/M10 A3009 RMK A01 T00571103  RH  031%=      5-min Rain = 0
KBWS 010638Z 05020G25KT 06/M10 A301 RMK A01 T00571103  RH  031%=      5-min Rain = 0
KBWS 010639Z 05022G27KT 06/M10 A301 RMK A01 T00561103  RH  031%=      5-min Rain = 0
KBWS 010640Z 05021KT 06/M10 A301 RMK A01 T00561103  RH  031%=      5-min Rain = 0
KBWS 010641Z 05021G28KT 06/M10 A301 RMK A01 T00561102  RH  031%=      5-min Rain = 0
KBWS 010642Z 05025G31KT 06/M10 A301 RMK A01 T00561103  RH  031%=      5-min Rain = 0
KBWS 010643Z 05021KT 06/M10 A301 RMK A01 T00561102  RH  031%=      5-min Rain = 0
KBWS 010644Z 05022G27KT 06/M10 A301 RMK A01 T00561101  RH  031%=      5-min Rain = 0
KBWS 010645Z 05019G24KT 06/M10 A301 RMK A01 T00561102  RH  031%=      5-min Rain = 0
KBWS 010646Z 05024G31KT 06/M10 A3009 RMK A01 T00561102  RH  031%=      5-min Rain = 0
KBWS 010647Z 05023G30KT 06/M10 A3009 RMK A01 T00561103  RH  031%=      5-min Rain = 0
KBWS 010648Z 05023G28KT 06/M10 A3009 RMK A01 T00561102  RH  031%=      5-min Rain = 0
KBWS 010649Z 05024G30KT 06/M10 A3009 RMK A01 T00561103  RH  031%=      5-min Rain = 0
KBWS 010650Z 05021G28KT 06/M10 A301 RMK A01 T00561103  RH  031%=      5-min Rain = 0
KBWS 010651Z 05021G26KT 06/M10 A301 RMK A01 T00551101  RH  031%=      5-min Rain = 0
KBWS 010652Z 05023G30KT 06/M10 A301 RMK A01 T00551102  RH  031%=      5-min Rain = 0
KBWS 010653Z 05022G28KT 06/M10 A301 RMK A01 T00551102  RH  031%=      5-min Rain = 0
KBWS 010654Z 05020G29KT 06/M10 A301 RMK A01 T00551101  RH  031%=      5-min Rain = 0
KBWS 010655Z 05023G29KT 06/M10 A301 RMK A01 T00551103  RH  031%=      5-min Rain = 0
KBWS 010656Z 05022G28KT 06/M10 A301 RMK A01 T00551103  RH  031%=      5-min Rain = 0
KBWS 010657Z 05020KT 06/M10 A301 RMK A01 T00551103  RH  031%=      5-min Rain = 0
KBWS 010658Z 05020G25KT 05/M10 A301 RMK A01 T00541103  RH  031%=      5-min Rain = 0
KBWS 010659Z 05020G27KT 05/M10 A301 RMK A01 T00541102  RH  031%=      5-min Rain = 0
KBWS 010700Z 05023G29KT 05/M10 A301 RMK A01 T00541103  RH  031%=      5-min Rain = 0
KBWS 010701Z 04022G30KT 05/M10 A301 RMK A01 T00541103  RH  031%=      5-min Rain = 0
KBWS 010702Z 05025G32KT 05/M10 A301 RMK A01 T00541103  RH  031%=      5-min Rain = 0
KBWS 010703Z 05025KT 05/M10 A301 RMK A01 T00541102  RH  031%=      5-min Rain = 0
KBWS 010704Z 05021G26KT 05/M10 A301 RMK A01 T00541101  RH  032%=      5-min Rain = 0
KBWS 010705Z 05022G30KT 05/M10 A301 RMK A01 T00541100  RH  032%=      5-min Rain = 0
KBWS 010706Z 05025G30KT 05/M10 A301 RMK A01 T00541101  RH  032%=      5-min Rain = 0
KBWS 010707Z 06026G31KT 05/M10 A3009 RMK A01 T00541101  RH  032%=      5-min Rain = 0
KBWS 010708Z 05024G30KT 05/M10 A3009 RMK A01 T00541100  RH  032%=      5-min Rain = 0
KBWS 010709Z 05025KT 05/M10 A301 RMK A01 T00541101  RH  032%=      5-min Rain = 0
KBWS 010710Z 05022G30KT 05/M10 A301 RMK A01 T00541101  RH  032%=      5-min Rain = 0
KBWS 010711Z 05023G30KT 05/M10 A301 RMK A01 T00541101  RH  032%=      5-min Rain = 0
KBWS 010712Z 05025G30KT 05/M10 A3009 RMK A01 T00541102  RH  031%=      5-min Rain = 0
KBWS 010713Z 04022G28KT 05/M10 A3009 RMK A01 T00541101  RH  032%=      5-min Rain = 0
KBWS 010714Z 04021G28KT 05/M10 A3009 RMK A01 T00541102  RH  032%=      5-min Rain = 0
KBWS 010715Z 05022G27KT 05/M10 A3009 RMK A01 T00541102  RH  031%=      5-min Rain = 0
KBWS 010716Z 05024G29KT 05/M10 A3009 RMK A01 T00541100  RH  032%=      5-min Rain = 0
KBWS 010717Z 05023G28KT 05/M10 A3009 RMK A01 T00541100  RH  032%=      5-min Rain = 0
KBWS 010718Z 05023G29KT 05/M10 A3009 RMK A01 T00541100  RH  032%=      5-min Rain = 0
KBWS 010719Z 05022G28KT 05/M10 A301 RMK A01 T00541101  RH  032%=      5-min Rain = 0
KBWS 010720Z 05023G28KT 05/M10 A301 RMK A01 T00541101  RH  032%=      5-min Rain = 0
KBWS 010721Z 05020G25KT 05/M10 A3009 RMK A01 T00541100  RH  032%=      5-min Rain = 0
KBWS 010722Z 05022KT 05/M10 A3009 RMK A01 T00531099  RH  032%=      5-min Rain = 0
KBWS 010723Z 05024G31KT 05/M10 A3009 RMK A01 T00531101  RH  032%=      5-min Rain = 0
KBWS 010724Z 05026G33KT 05/M10 A3008 RMK A01 T00531101  RH  032%=      5-min Rain = 0
KBWS 010725Z 05022G28KT 05/M10 A3009 RMK A01 T00531101  RH  032%=      5-min Rain = 0
KBWS 010726Z 05024G31KT 05/M10 A3009 RMK A01 T00521100  RH  032%=      5-min Rain = 0
KBWS 010727Z 05022G27KT 05/M10 A3009 RMK A01 T00521100  RH  032%=      5-min Rain = 0
KBWS 010728Z 05022G27KT 05/M10 A3009 RMK A01 T00521102  RH  032%=      5-min Rain = 0
KBWS 010729Z 04023G30KT 05/M10 A3009 RMK A01 T00521101  RH  032%=      5-min Rain = 0
KBWS 010730Z 04026G31KT 05/M10 A3009 RMK A01 T00521102  RH  032%=      5-min Rain = 0
KBWS 010731Z 04021G29KT 05/M10 A3009 RMK A01 T00521103  RH  032%=      5-min Rain = 0
KBWS 010732Z 04022G29KT 05/M10 A3009 RMK A01 T00521102  RH  032%=      5-min Rain = 0
KBWS 010733Z 05022G28KT 05/M10 A301 RMK A01 T00521102  RH  032%=      5-min Rain = 0
KBWS 010734Z 04020G25KT 05/M10 A301 RMK A01 T00521102  RH  032%=      5-min Rain = 0
KBWS 010735Z 04021G27KT 05/M10 A301 RMK A01 T00521102  RH  032%=      5-min Rain = 0
KBWS 010736Z 04024G30KT 05/M10 A301 RMK A01 T00521103  RH  032%=      5-min Rain = 0
KBWS 010737Z 04021G28KT 05/M10 A301 RMK A01 T00521103  RH  032%=      5-min Rain = 0
KBWS 010738Z 04020G26KT 05/M10 A301 RMK A01 T00521103  RH  032%=      5-min Rain = 0
KBWS 010739Z 04020G25KT 05/M10 A3011 RMK A01 T00521103  RH  032%=      5-min Rain = 0
KBWS 010740Z 04020G26KT 05/M10 A3011 RMK A01 T00521103  RH  032%=      5-min Rain = 0
KBWS 010741Z 04022G30KT 05/M10 A3011 RMK A01 T00521103  RH  032%=      5-min Rain = 0
KBWS 010742Z 04023G28KT 05/M10 A301 RMK A01 T00521103  RH  032%=      5-min Rain = 0
KBWS 010743Z 04021G27KT 05/M10 A301 RMK A01 T00511103  RH  032%=      5-min Rain = 0
KBWS 010744Z 04023G28KT 05/M10 A301 RMK A01 T00511103  RH  032%=      5-min Rain = 0
KBWS 010745Z 03021KT 05/M10 A301 RMK A01 T00511103  RH  032%=      5-min Rain = 0
KBWS 010746Z 03021G29KT 05/M10 A301 RMK A01 T00511103  RH  032%=      5-min Rain = 0
KBWS 010747Z 03024G29KT 05/M10 A301 RMK A01 T00511103  RH  032%=      5-min Rain = 0
KBWS 010748Z 03020KT 05/M10 A301 RMK A01 T00511104  RH  032%=      5-min Rain = 0
KBWS 010749Z 04020G28KT 05/M10 A301 RMK A01 T00511103  RH  032%=      5-min Rain = 0
KBWS 010750Z 04022G28KT 05/M10 A301 RMK A01 T00511103  RH  032%=      5-min Rain = 0
KBWS 010751Z 04023G29KT 05/M10 A301 RMK A01 T00511103  RH  032%=      5-min Rain = 0
KBWS 010752Z 03022G27KT 05/M10 A3011 RMK A01 T00511102  RH  032%=      5-min Rain = 0
KBWS 010753Z 03024G31KT 05/M10 A301 RMK A01 T00501102  RH  032%=      5-min Rain = 0
KBWS 010754Z 04023G31KT 05/M10 A301 RMK A01 T00501100  RH  033%=      5-min Rain = 0
KBWS 010755Z 03022G28KT 05/M10 A301 RMK A01 T00491098  RH  034%=      5-min Rain = 0
KBWS 010756Z 03020G27KT 05/M10 A301 RMK A01 T00481096  RH  034%=      5-min Rain = 0
KBWS 010757Z 03023G30KT 05/M09 A3009 RMK A01 T00471092  RH  036%=      5-min Rain = 0
KBWS 010758Z 03024G30KT 05/M09 A3009 RMK A01 T00471091  RH  036%=      5-min Rain = 0
KBWS 010759Z 03023G29KT 05/M09 A3009 RMK A01 T00461092  RH  036%=      5-min Rain = 0
KBWS 010800Z 03020G28KT 05/M09 A3009 RMK A01 T00461090  RH  037%=      5-min Rain = 0
KBWS 010801Z 02021G29KT 05/M09 A3009 RMK A01 T00461090  RH  037%=      5-min Rain = 0
KBWS 010802Z 02024KT 05/M09 A3009 RMK A01 T00451091  RH  036%=      5-min Rain = 0
KBWS 010803Z 03024G30KT 05/M09 A3009 RMK A01 T00461093  RH  036%=      5-min Rain = 0
KBWS 010804Z 03025G31KT 05/M09 A3009 RMK A01 T00451093  RH  036%=      5-min Rain = 0
KBWS 010805Z 03025G31KT 05/M09 A3009 RMK A01 T00451093  RH  036%=      5-min Rain = 0
KBWS 010806Z 03021KT 05/M09 A3009 RMK A01 T00451093  RH  036%=      5-min Rain = 0
KBWS 010807Z 03022G28KT 05/M09 A3009 RMK A01 T00451092  RH  036%=      5-min Rain = 0
KBWS 010808Z 03022G30KT 05/M09 A301 RMK A01 T00451092  RH  036%=      5-min Rain = 0
KBWS 010809Z 04019G24KT 05/M09 A301 RMK A01 T00451092  RH  036%=      5-min Rain = 0
KBWS 010810Z 03022G30KT 05/M09 A3011 RMK A01 T00451092  RH  036%=      5-min Rain = 0
KBWS 010811Z 04025G30KT 05/M10 A3011 RMK A01 T00451095  RH  036%=      5-min Rain = 0
KBWS 010812Z 04022G28KT 05/M10 A3012 RMK A01 T00451096  RH  035%=      5-min Rain = 0
KBWS 010813Z 03020G27KT 05/M10 A3012 RMK A01 T00451096  RH  035%=      5-min Rain = 0
KBWS 010814Z 03021G28KT 05/M10 A3013 RMK A01 T00451097  RH  035%=      5-min Rain = 0
KBWS 010815Z 03018G24KT 05/M10 A3013 RMK A01 T00461097  RH  035%=      5-min Rain = 0
KBWS 010816Z 03019KT 05/M10 A3014 RMK A01 T00461096  RH  035%=      5-min Rain = 0
KBWS 010817Z 03016KT 05/M10 A3014 RMK A01 T00461095  RH  035%=      5-min Rain = 0
KBWS 010818Z 03016KT 05/M10 A3014 RMK A01 T00461095  RH  035%=      5-min Rain = 0
KBWS 010819Z 03020G27KT 05/M09 A3014 RMK A01 T00461094  RH  035%=      5-min Rain = 0
KBWS 010820Z 03019KT 05/M10 A3013 RMK A01 T00451096  RH  035%=      5-min Rain = 0
KBWS 010821Z 03018KT 05/M10 A3013 RMK A01 T00461096  RH  035%=      5-min Rain = 0
KBWS 010822Z 03018G24KT 05/M10 A3013 RMK A01 T00451095  RH  035%=      5-min Rain = 0
KBWS 010823Z 04024G29KT 05/M10 A3013 RMK A01 T00461096  RH  035%=      5-min Rain = 0
KBWS 010824Z 04021KT 05/M10 A3013 RMK A01 T00451097  RH  035%=      5-min Rain = 0
KBWS 010825Z 03019G25KT 05/M10 A3012 RMK A01 T00451097  RH  035%=      5-min Rain = 0
KBWS 010826Z 03020G25KT 05/M10 A3012 RMK A01 T00451096  RH  035%=      5-min Rain = 0
KBWS 010827Z 04020G27KT 05/M10 A3012 RMK A01 T00451097  RH  035%=      5-min Rain = 0
KBWS 010828Z 04020G26KT 05/M10 A3012 RMK A01 T00451097  RH  035%=      5-min Rain = 0
KBWS 010829Z 03020KT 05/M10 A3012 RMK A01 T00451097  RH  035%=      5-min Rain = 0
KBWS 010830Z 03021G27KT 05/M10 A3012 RMK A01 T00451097  RH  035%=      5-min Rain = 0
KBWS 010831Z 03019G26KT 05/M10 A3013 RMK A01 T00451098  RH  035%=      5-min Rain = 0
KBWS 010832Z 03018KT 05/M10 A3013 RMK A01 T00451098  RH  035%=      5-min Rain = 0
KBWS 010833Z 03018G27KT 05/M10 A3013 RMK A01 T00451097  RH  035%=      5-min Rain = 0
KBWS 010834Z 03020G25KT 05/M10 A3013 RMK A01 T00451097  RH  035%=      5-min Rain = 0
KBWS 010835Z 03020G27KT 05/M10 A3013 RMK A01 T00451097  RH  035%=      5-min Rain = 0
KBWS 010836Z 03023G28KT 05/M10 A3012 RMK A01 T00451098  RH  035%=      5-min Rain = 0
KBWS 010837Z 03020G26KT 05/M10 A3013 RMK A01 T00451098  RH  035%=      5-min Rain = 0
KBWS 010838Z 03019G26KT 05/M10 A3013 RMK A01 T00451098  RH  035%=      5-min Rain = 0
KBWS 010839Z 03018G23KT 05/M10 A3013 RMK A01 T00451098  RH  035%=      5-min Rain = 0
KBWS 010840Z 03017G22KT 05/M10 A3014 RMK A01 T00451098  RH  035%=      5-min Rain = 0
KBWS 010841Z 03018G24KT 05/M10 A3014 RMK A01 T00451098  RH  035%=      5-min Rain = 0
KBWS 010842Z 03019KT 05/M10 A3014 RMK A01 T00451098  RH  035%=      5-min Rain = 0
KBWS 010843Z 04017KT 05/M10 A3015 RMK A01 T00451099  RH  034%=      5-min Rain = 0
KBWS 010844Z 03016KT 05/M10 A3015 RMK A01 T00451099  RH  034%=      5-min Rain = 0
KBWS 010845Z 03017KT 05/M10 A3016 RMK A01 T00451099  RH  034%=      5-min Rain = 0
KBWS 010846Z 03015KT 05/M10 A3016 RMK A01 T00451099  RH  034%=      5-min Rain = 0
KBWS 010847Z 02012KT 05/M10 A3017 RMK A01 T00451099  RH  034%=      5-min Rain = 0
KBWS 010848Z 02013KT 05/M10 A3017 RMK A01 T00451098  RH  035%=      5-min Rain = 0
KBWS 010849Z 02012KT 05/M10 A3017 RMK A01 T00451099  RH  034%=      5-min Rain = 0
KBWS 010850Z 02012KT 05/M10 A3017 RMK A01 T00451098  RH  034%=      5-min Rain = 0
KBWS 010851Z 02013KT 05/M10 A3017 RMK A01 T00451098  RH  034%=      5-min Rain = 0
KBWS 010852Z 02014KT 05/M10 A3017 RMK A01 T00451099  RH  034%=      5-min Rain = 0
KBWS 010853Z 03013KT 05/M10 A3017 RMK A01 T00451100  RH  034%=      5-min Rain = 0
KBWS 010854Z 03012KT 05/M10 A3017 RMK A01 T00451099  RH  034%=      5-min Rain = 0
KBWS 010855Z 03015KT 05/M10 A3017 RMK A01 T00451099  RH  034%=      5-min Rain = 0
KBWS 010856Z 03013KT 05/M10 A3018 RMK A01 T00451100  RH  034%=      5-min Rain = 0
KBWS 010857Z 03014KT 05/M10 A3018 RMK A01 T00451100  RH  034%=      5-min Rain = 0
KBWS 010858Z 03012KT 05/M10 A3018 RMK A01 T00451100  RH  034%=      5-min Rain = 0
KBWS 010859Z 03011KT 05/M10 A3017 RMK A01 T00451099  RH  034%=      5-min Rain = 0
KBWS 010900Z 03011KT 04/M10 A3017 RMK A01 T00441099  RH  035%=      5-min Rain = 0
KBWS 010901Z 03015KT 04/M10 A3017 RMK A01 T00441099  RH  035%=      5-min Rain = 0
KBWS 010902Z 03015G21KT 04/M10 A3017 RMK A01 T00441099  RH  034%=      5-min Rain = 0
KBWS 010903Z 03016KT 04/M10 A3017 RMK A01 T00441101  RH  034%=      5-min Rain = 0
KBWS 010904Z 03013G18KT 04/M10 A3016 RMK A01 T00441101  RH  034%=      5-min Rain = 0
KBWS 010905Z 04016KT 04/M10 A3016 RMK A01 T00431101  RH  034%=      5-min Rain = 0
KBWS 010906Z 03014KT 04/M10 A3016 RMK A01 T00431101  RH  034%=      5-min Rain = 0
KBWS 010907Z 04016G22KT 04/M10 A3015 RMK A01 T00421100  RH  035%=      5-min Rain = 0
KBWS 010908Z 04018KT 04/M10 A3015 RMK A01 T00421101  RH  035%=      5-min Rain = 0
KBWS 010909Z 04015G21KT 04/M10 A3015 RMK A01 T00421101  RH  035%=      5-min Rain = 0
KBWS 010910Z 03018KT 04/M10 A3015 RMK A01 T00421101  RH  035%=      5-min Rain = 0
KBWS 010911Z 04015G20KT 04/M10 A3015 RMK A01 T00421101  RH  034%=      5-min Rain = 0
KBWS 010912Z 03015G20KT 04/M10 A3015 RMK A01 T00421101  RH  035%=      5-min Rain = 0
KBWS 010913Z 04018G23KT 04/M10 A3015 RMK A01 T00411100  RH  035%=      5-min Rain = 0
KBWS 010914Z 04016KT 04/M10 A3016 RMK A01 T00411101  RH  035%=      5-min Rain = 0
KBWS 010915Z 04016G21KT 04/M10 A3016 RMK A01 T00411101  RH  035%=      5-min Rain = 0
KBWS 010916Z 04016KT 04/M10 A3016 RMK A01 T00411101  RH  035%=      5-min Rain = 0
KBWS 010917Z 04016KT 04/M10 A3016 RMK A01 T00411100  RH  035%=      5-min Rain = 0
KBWS 010918Z 04018KT 04/M10 A3016 RMK A01 T00411100  RH  035%=      5-min Rain = 0
KBWS 010919Z 04017KT 04/M10 A3016 RMK A01 T00421101  RH  035%=      5-min Rain = 0
KBWS 010920Z 04015KT 04/M10 A3016 RMK A01 T00421101  RH  035%=      5-min Rain = 0
KBWS 010921Z 04015G20KT 04/M10 A3016 RMK A01 T00421101  RH  035%=      5-min Rain = 0
KBWS 010922Z 04016KT 04/M10 A3016 RMK A01 T00421101  RH  034%=      5-min Rain = 0
KBWS 010923Z 04014G19KT 04/M10 A3016 RMK A01 T00431101  RH  034%=      5-min Rain = 0
KBWS 010924Z 04014G19KT 04/M10 A3016 RMK A01 T00431101  RH  034%=      5-min Rain = 0
KBWS 010925Z 04015KT 04/M10 A3016 RMK A01 T00431100  RH  034%=      5-min Rain = 0
KBWS 010926Z 04016G21KT 04/M10 A3017 RMK A01 T00431101  RH  034%=      5-min Rain = 0
KBWS 010927Z 04015KT 04/M10 A3017 RMK A01 T00431101  RH  034%=      5-min Rain = 0
KBWS 010928Z 04015KT 04/M10 A3017 RMK A01 T00431101  RH  034%=      5-min Rain = 0
KBWS 010929Z 04014KT 04/M10 A3017 RMK A01 T00431101  RH  034%=      5-min Rain = 0
KBWS 010930Z 04015KT 04/M10 A3017 RMK A01 T00431101  RH  034%=      5-min Rain = 0
KBWS 010931Z 05015G20KT 04/M10 A3017 RMK A01 T00431101  RH  034%=      5-min Rain = 0
KBWS 010932Z 04015KT 04/M10 A3018 RMK A01 T00441101  RH  034%=      5-min Rain = 0
KBWS 010933Z 04014KT 04/M10 A3018 RMK A01 T00441101  RH  034%=      5-min Rain = 0
KBWS 010934Z 05014KT 04/M10 A3018 RMK A01 T00441101  RH  034%=      5-min Rain = 0
KBWS 010935Z 05015KT 04/M10 A3018 RMK A01 T00441099  RH  035%=      5-min Rain = 0
KBWS 010936Z 05014KT 04/M10 A3018 RMK A01 T00441099  RH  035%=      5-min Rain = 0
KBWS 010937Z 04014KT 04/M10 A3018 RMK A01 T00441098  RH  035%=      5-min Rain = 0
KBWS 010938Z 04013KT 04/M10 A3018 RMK A01 T00441100  RH  034%=      5-min Rain = 0
KBWS 010939Z 04015KT 04/M10 A3017 RMK A01 T00441099  RH  035%=      5-min Rain = 0
KBWS 010940Z 04015KT 04/M10 A3017 RMK A01 T00441099  RH  035%=      5-min Rain = 0
KBWS 010941Z 04016KT 04/M10 A3017 RMK A01 T00441099  RH  035%=      5-min Rain = 0
KBWS 010942Z 04014G19KT 04/M10 A3017 RMK A01 T00441100  RH  034%=      5-min Rain = 0
KBWS 010943Z 04012G17KT 04/M10 A3017 RMK A01 T00441100  RH  034%=      5-min Rain = 0
KBWS 010944Z 04014KT 04/M10 A3017 RMK A01 T00441100  RH  034%=      5-min Rain = 0
KBWS 010945Z 04014KT 04/M10 A3017 RMK A01 T00441100  RH  034%=      5-min Rain = 0
KBWS 010946Z 04015KT 04/M10 A3017 RMK A01 T00431101  RH  034%=      5-min Rain = 0
KBWS 010947Z 04015KT 04/M10 A3017 RMK A01 T00431101  RH  034%=      5-min Rain = 0
KBWS 010948Z 04017KT 04/M10 A3017 RMK A01 T00431101  RH  034%=      5-min Rain = 0
KBWS 010949Z 04016KT 04/M10 A3017 RMK A01 T00431101  RH  034%=      5-min Rain = 0
KBWS 010950Z 04014KT 04/M10 A3017 RMK A01 T00431101  RH  034%=      5-min Rain = 0
KBWS 010951Z 04016KT 04/M10 A3017 RMK A01 T00431100  RH  034%=      5-min Rain = 0
KBWS 010952Z 04015KT 04/M10 A3016 RMK A01 T00431100  RH  034%=      5-min Rain = 0
KBWS 010953Z 04015KT 04/M10 A3016 RMK A01 T00431100  RH  035%=      5-min Rain = 0
KBWS 010954Z 04016KT 04/M10 A3016 RMK A01 T00431100  RH  035%=      5-min Rain = 0
KBWS 010955Z 04017G22KT 04/M10 A3017 RMK A01 T00431100  RH  034%=      5-min Rain = 0
KBWS 010956Z 04017KT 04/M10 A3017 RMK A01 T00431101  RH  034%=      5-min Rain = 0
KBWS 010957Z 04017KT 04/M10 A3017 RMK A01 T00431101  RH  034%=      5-min Rain = 0
KBWS 010958Z 05015G21KT 04/M10 A3017 RMK A01 T00431101  RH  034%=      5-min Rain = 0
KBWS 010959Z 04015KT 04/M10 A3017 RMK A01 T00431101  RH  034%=      5-min Rain = 0
KBWS 011000Z 04016KT 04/M10 A3017 RMK A01 T00431102  RH  034%=      5-min Rain = 0
KBWS 011001Z 05014KT 04/M10 A3017 RMK A01 T00431100  RH  034%=      5-min Rain = 0
KBWS 011002Z 04015KT 04/M10 A3017 RMK A01 T00431099  RH  035%=      5-min Rain = 0
KBWS 011003Z 04015G20KT 04/M10 A3018 RMK A01 T00431101  RH  034%=      5-min Rain = 0
KBWS 011004Z 04016KT 04/M10 A3018 RMK A01 T00431101  RH  034%=      5-min Rain = 0
KBWS 011005Z 04015KT 04/M10 A3018 RMK A01 T00431102  RH  034%=      5-min Rain = 0
KBWS 011006Z 04014KT 04/M10 A3018 RMK A01 T00441101  RH  034%=      5-min Rain = 0
KBWS 011007Z 04015KT 04/M10 A3018 RMK A01 T00441101  RH  034%=      5-min Rain = 0
KBWS 011008Z 04013KT 04/M10 A3018 RMK A01 T00441101  RH  034%=      5-min Rain = 0
KBWS 011009Z 03012KT 04/M10 A3018 RMK A01 T00441101  RH  034%=      5-min Rain = 0
KBWS 011010Z 03013KT 04/M10 A3018 RMK A01 T00441101  RH  034%=      5-min Rain = 0
KBWS 011011Z 03013KT 04/M10 A3018 RMK A01 T00441100  RH  034%=      5-min Rain = 0
KBWS 011012Z 03014KT 04/M10 A3018 RMK A01 T00431100  RH  034%=      5-min Rain = 0
KBWS 011013Z 03013KT 04/M10 A3018 RMK A01 T00431100  RH  034%=      5-min Rain = 0
KBWS 011014Z 04014KT 04/M10 A3017 RMK A01 T00431099  RH  035%=      5-min Rain = 0
KBWS 011015Z 04013KT 04/M10 A3017 RMK A01 T00431099  RH  035%=      5-min Rain = 0
KBWS 011016Z 04015KT 04/M10 A3017 RMK A01 T00431099  RH  035%=      5-min Rain = 0
KBWS 011017Z 03014KT 04/M10 A3017 RMK A01 T00431099  RH  035%=      5-min Rain = 0
KBWS 011018Z 04014G19KT 04/M10 A3017 RMK A01 T00431099  RH  035%=      5-min Rain = 0
KBWS 011019Z 04013KT 04/M10 A3017 RMK A01 T00431099  RH  035%=      5-min Rain = 0
KBWS 011020Z 04014KT 04/M10 A3017 RMK A01 T00431099  RH  035%=      5-min Rain = 0
KBWS 011021Z 04015G20KT 04/M10 A3017 RMK A01 T00431100  RH  035%=      5-min Rain = 0
KBWS 011022Z 03014KT 04/M10 A3017 RMK A01 T00431100  RH  034%=      5-min Rain = 0
KBWS 011023Z 04013KT 04/M10 A3017 RMK A01 T00431100  RH  034%=      5-min Rain = 0
KBWS 011024Z 04011KT 04/M10 A3017 RMK A01 T00431099  RH  035%=      5-min Rain = 0
KBWS 011025Z 04010KT 04/M10 A3018 RMK A01 T00431099  RH  035%=      5-min Rain = 0
KBWS 011026Z 04012KT 04/M10 A3018 RMK A01 T00431099  RH  035%=      5-min Rain = 0
KBWS 011027Z 03010KT 04/M10 A3018 RMK A01 T00431100  RH  035%=      5-min Rain = 0
KBWS 011028Z 03011KT 04/M10 A3018 RMK A01 T00431100  RH  034%=      5-min Rain = 0
KBWS 011029Z 03009KT 04/M10 A3018 RMK A01 T00441100  RH  034%=      5-min Rain = 0
KBWS 011030Z 03010KT 04/M10 A3018 RMK A01 T00441099  RH  035%=      5-min Rain = 0
KBWS 011031Z 02012G17KT 04/M10 A3019 RMK A01 T00441099  RH  035%=      5-min Rain = 0
KBWS 011032Z 02014KT 04/M10 A3019 RMK A01 T00441100  RH  034%=      5-min Rain = 0
KBWS 011033Z 02012KT 04/M10 A3019 RMK A01 T00441100  RH  034%=      5-min Rain = 0
KBWS 011034Z 02014KT 04/M10 A3019 RMK A01 T00441099  RH  035%=      5-min Rain = 0
KBWS 011035Z 02014KT 04/M10 A3019 RMK A01 T00441100  RH  034%=      5-min Rain = 0
KBWS 011036Z 02016G21KT 04/M10 A3019 RMK A01 T00441100  RH  034%=      5-min Rain = 0
KBWS 011037Z 03014KT 04/M10 A3019 RMK A01 T00441100  RH  034%=      5-min Rain = 0
KBWS 011038Z 03016G21KT 04/M10 A3019 RMK A01 T00441100  RH  034%=      5-min Rain = 0
KBWS 011039Z 03015KT 04/M10 A3018 RMK A01 T00441100  RH  034%=      5-min Rain = 0
KBWS 011040Z 03015G20KT 04/M10 A3018 RMK A01 T00441099  RH  035%=      5-min Rain = 0
KBWS 011041Z 03016KT 04/M10 A3018 RMK A01 T00441099  RH  035%=      5-min Rain = 0
KBWS 011042Z 04015KT 04/M10 A3018 RMK A01 T00441099  RH  035%=      5-min Rain = 0
KBWS 011043Z 03016KT 04/M10 A3018 RMK A01 T00441099  RH  035%=      5-min Rain = 0
KBWS 011044Z 03016KT 04/M10 A3018 RMK A01 T00441099  RH  035%=      5-min Rain = 0
KBWS 011045Z 03014KT 04/M10 A3019 RMK A01 T00441099  RH  035%=      5-min Rain = 0
KBWS 011046Z 03012KT 04/M10 A3019 RMK A01 T00431098  RH  035%=      5-min Rain = 0
KBWS 011047Z 03014G19KT 04/M10 A3019 RMK A01 T00431098  RH  035%=      5-min Rain = 0
KBWS 011048Z 03014G19KT 04/M10 A3019 RMK A01 T00431099  RH  035%=      5-min Rain = 0
KBWS 011049Z 03013KT 04/M10 A302 RMK A01 T00431099  RH  035%=      5-min Rain = 0
KBWS 011050Z 04014KT 04/M10 A302 RMK A01 T00431099  RH  035%=      5-min Rain = 0
KBWS 011051Z 04012KT 04/M10 A302 RMK A01 T00431098  RH  035%=      5-min Rain = 0
KBWS 011052Z 03013KT 04/M10 A302 RMK A01 T00431098  RH  035%=      5-min Rain = 0
KBWS 011053Z 03011KT 04/M10 A3021 RMK A01 T00431098  RH  035%=      5-min Rain = 0
KBWS 011054Z 04009KT 04/M10 A3021 RMK A01 T00431098  RH  035%=      5-min Rain = 0
KBWS 011055Z 04011KT 04/M10 A3021 RMK A01 T00431097  RH  035%=      5-min Rain = 0
KBWS 011056Z 03012KT 04/M10 A3021 RMK A01 T00431097  RH  035%=      5-min Rain = 0
KBWS 011057Z 03011KT 04/M10 A3021 RMK A01 T00431098  RH  035%=      5-min Rain = 0
KBWS 011058Z 04011G16KT 04/M10 A3021 RMK A01 T00431097  RH  035%=      5-min Rain = 0
KBWS 011059Z 04013KT 04/M10 A3021 RMK A01 T00431097  RH  035%=      5-min Rain = 0
KBWS 011100Z 04013KT 04/M10 A3021 RMK A01 T00431097  RH  035%=      5-min Rain = 0
KBWS 011101Z 04012KT 04/M10 A3021 RMK A01 T00431097  RH  035%=      5-min Rain = 0
KBWS 011102Z 04011KT 04/M10 A3021 RMK A01 T00431096  RH  036%=      5-min Rain = 0
KBWS 011103Z 04010G15KT 04/M09 A3021 RMK A01 T00431093  RH  036%=      5-min Rain = 0
KBWS 011104Z 04013KT 04/M09 A3021 RMK A01 T00431094  RH  036%=      5-min Rain = 0
KBWS 011105Z 04010KT 04/M10 A3022 RMK A01 T00431095  RH  036%=      5-min Rain = 0
KBWS 011106Z 04010KT 04/M09 A3022 RMK A01 T00431094  RH  036%=      5-min Rain = 0
KBWS 011107Z 04010KT 04/M09 A3022 RMK A01 T00431094  RH  036%=      5-min Rain = 0
KBWS 011108Z 04009KT 04/M09 A3023 RMK A01 T00431094  RH  036%=      5-min Rain = 0
KBWS 011109Z 05007KT 04/M09 A3023 RMK A01 T00431093  RH  037%=      5-min Rain = 0
KBWS 011110Z 04008KT 04/M09 A3023 RMK A01 T00431091  RH  037%=      5-min Rain = 0
KBWS 011111Z 04008KT 04/M09 A3023 RMK A01 T00431093  RH  037%=      5-min Rain = 0
KBWS 011112Z 04008KT 04/M09 A3023 RMK A01 T00431092  RH  037%=      5-min Rain = 0
KBWS 011113Z 03007KT 04/M09 A3023 RMK A01 T00431093  RH  037%=      5-min Rain = 0
KBWS 011114Z 03008KT 04/M09 A3023 RMK A01 T00421093  RH  037%=      5-min Rain = 0
KBWS 011115Z 03009KT 04/M09 A3022 RMK A01 T00421093  RH  037%=      5-min Rain = 0
KBWS 011116Z 04009KT 04/M09 A3022 RMK A01 T00421093  RH  037%=      5-min Rain = 0
KBWS 011117Z 03008KT 04/M09 A3022 RMK A01 T00421092  RH  037%=      5-min Rain = 0
KBWS 011118Z 04008KT 04/M09 A3022 RMK A01 T00421091  RH  037%=      5-min Rain = 0
KBWS 011119Z 04009KT 04/M09 A3022 RMK A01 T00421091  RH  037%=      5-min Rain = 0
KBWS 011120Z 03009KT 04/M09 A3022 RMK A01 T00421091  RH  037%=      5-min Rain = 0
KBWS 011121Z 04010KT 04/M09 A3022 RMK A01 T00421089  RH  038%=      5-min Rain = 0
KBWS 011122Z 04010KT 04/M09 A3022 RMK A01 T00421087  RH  039%=      5-min Rain = 0
KBWS 011123Z 03009KT 04/M09 A3022 RMK A01 T00421085  RH  039%=      5-min Rain = 0
KBWS 011124Z 03011KT 04/M08 A3022 RMK A01 T00411083  RH  040%=      5-min Rain = 0
KBWS 011125Z 03009KT 04/M08 A3023 RMK A01 T00411081  RH  041%=      5-min Rain = 0
KBWS 011126Z 03011KT 04/M08 A3023 RMK A01 T00411079  RH  041%=      5-min Rain = 0
KBWS 011127Z 03011KT 04/M08 A3023 RMK A01 T00411077  RH  042%=      5-min Rain = 0
KBWS 011128Z 03011KT 04/M08 A3023 RMK A01 T00411076  RH  042%=      5-min Rain = 0
KBWS 011129Z 02012KT 04/M08 A3023 RMK A01 T00401076  RH  042%=      5-min Rain = 0
KBWS 011130Z 02011KT 04/M08 A3023 RMK A01 T00401076  RH  042%=      5-min Rain = 0
KBWS 011131Z 02012KT 04/M08 A3022 RMK A01 T00401076  RH  042%=      5-min Rain = 0
KBWS 011132Z 03012KT 04/M08 A3022 RMK A01 T00401076  RH  042%=      5-min Rain = 0
KBWS 011133Z 03012KT 04/M08 A3022 RMK A01 T00401076  RH  042%=      5-min Rain = 0
KBWS 011134Z 03011KT 04/M07 A3022 RMK A01 T00401074  RH  043%=      5-min Rain = 0
KBWS 011135Z 03013KT 04/M07 A3022 RMK A01 T00401074  RH  043%=      5-min Rain = 0
KBWS 011136Z 03012KT 04/M07 A3022 RMK A01 T00391072  RH  044%=      5-min Rain = 0
KBWS 011137Z 03013KT 04/M07 A3022 RMK A01 T00391070  RH  045%=      5-min Rain = 0
KBWS 011138Z 04014KT 04/M07 A3022 RMK A01 T00391066  RH  046%=      5-min Rain = 0
KBWS 011139Z 03016KT 04/M06 A3022 RMK A01 T00381060  RH  049%=      5-min Rain = 0
KBWS 011140Z 03014KT 04/M06 A3023 RMK A01 T00371057  RH  050%=      5-min Rain = 0
KBWS 011141Z 03013KT 04/M06 A3023 RMK A01 T00361057  RH  051%=      5-min Rain = 0
KBWS 011142Z 04012KT 04/M06 A3023 RMK A01 T00361056  RH  051%=      5-min Rain = 0
KBWS 011143Z 04012KT 04/M06 A3023 RMK A01 T00351055  RH  052%=      5-min Rain = 0
KBWS 011144Z 04013KT 04/M05 A3023 RMK A01 T00351053  RH  053%=      5-min Rain = 0
KBWS 011145Z 04012KT 03/M05 A3023 RMK A01 T00341051  RH  054%=      5-min Rain = 0
KBWS 011146Z 04012KT 03/M05 A3023 RMK A01 T00331049  RH  055%=      5-min Rain = 0
KBWS 011147Z 04011KT 03/M05 A3023 RMK A01 T00331047  RH  056%=      5-min Rain = 0
KBWS 011148Z 04010KT 03/M05 A3023 RMK A01 T00331045  RH  057%=      5-min Rain = 0
KBWS 011149Z 04011KT 03/M04 A3023 RMK A01 T00321043  RH  058%=      5-min Rain = 0
KBWS 011150Z 03012KT 03/M04 A3023 RMK A01 T00311042  RH  059%=      5-min Rain = 0
KBWS 011151Z 04011KT 03/M04 A3023 RMK A01 T00311041  RH  059%=      5-min Rain = 0
KBWS 011152Z 04012KT 03/M04 A3024 RMK A01 T00301039  RH  060%=      5-min Rain = 0
KBWS 011153Z 04011KT 03/M04 A3024 RMK A01 T00301038  RH  061%=      5-min Rain = 0
KBWS 011154Z 04010KT 03/M04 A3024 RMK A01 T00301038  RH  061%=      5-min Rain = 0
KBWS 011155Z 04010KT 03/M04 A3024 RMK A01 T00291040  RH  060%=      5-min Rain = 0
KBWS 011156Z 04011KT 03/M04 A3024 RMK A01 T00291044  RH  059%=      5-min Rain = 0
KBWS 011157Z 04011KT 03/M05 A3024 RMK A01 T00301045  RH  058%=      5-min Rain = 0
KBWS 011158Z 04010KT 03/M05 A3024 RMK A01 T00301045  RH  058%=      5-min Rain = 0
KBWS 011159Z 04009KT 03/M04 A3024 RMK A01 T00301044  RH  058%=      5-min Rain = 0
KBWS 011200Z 04009KT 03/M04 A3024 RMK A01 T00291042  RH  059%=      5-min Rain = 0
KBWS 011201Z 04009KT 03/M04 A3024 RMK A01 T00291042  RH  059%=      5-min Rain = 0
KBWS 011202Z 03010KT 03/M04 A3024 RMK A01 T00291041  RH  060%=      5-min Rain = 0
KBWS 011203Z 03010KT 03/M04 A3024 RMK A01 T00281044  RH  059%=      5-min Rain = 0
KBWS 011204Z 03011KT 03/M05 A3024 RMK A01 T00281045  RH  059%=      5-min Rain = 0
KBWS 011205Z 03010KT 03/M05 A3023 RMK A01 T00281045  RH  059%=      5-min Rain = 0
KBWS 011206Z 03009KT 03/M05 A3023 RMK A01 T00271046  RH  059%=      5-min Rain = 0
KBWS 011207Z 03009KT 03/M04 A3023 RMK A01 T00271044  RH  059%=      5-min Rain = 0
KBWS 011208Z 03009KT 03/M05 A3023 RMK A01 T00271045  RH  059%=      5-min Rain = 0
KBWS 011209Z 03009KT 03/M05 A3023 RMK A01 T00271045  RH  059%=      5-min Rain = 0
KBWS 011210Z 03008KT 03/M04 A3023 RMK A01 T00271044  RH  059%=      5-min Rain = 0
KBWS 011211Z 03008KT 03/M05 A3023 RMK A01 T00281045  RH  059%=      5-min Rain = 0
KBWS 011212Z 02008KT 03/M05 A3023 RMK A01 T00281047  RH  058%=      5-min Rain = 0
KBWS 011213Z 03007KT 03/M05 A3023 RMK A01 T00291050  RH  056%=      5-min Rain = 0
KBWS 011214Z 02007KT 03/M05 A3023 RMK A01 T00291050  RH  056%=      5-min Rain = 0
KBWS 011215Z 02007KT 03/M05 A3024 RMK A01 T00301050  RH  056%=      5-min Rain = 0
KBWS 011216Z 03008KT 03/M05 A3024 RMK A01 T00301050  RH  055%=      5-min Rain = 0
KBWS 011217Z 03009KT 03/M05 A3024 RMK A01 T00311051  RH  055%=      5-min Rain = 0
KBWS 011218Z 03009KT 03/M05 A3024 RMK A01 T00311054  RH  053%=      5-min Rain = 0
KBWS 011219Z 03009KT 03/M06 A3024 RMK A01 T00321055  RH  053%=      5-min Rain = 0
KBWS 011220Z 03009KT 03/M06 A3024 RMK A01 T00321055  RH  053%=      5-min Rain = 0
KBWS 011221Z 02010KT 03/M06 A3024 RMK A01 T00321056  RH  052%=      5-min Rain = 0
KBWS 011222Z 02009KT 03/M06 A3023 RMK A01 T00331055  RH  052%=      5-min Rain = 0
KBWS 011223Z 01011KT 03/M06 A3023 RMK A01 T00331055  RH  053%=      5-min Rain = 0
KBWS 011224Z 01011KT 03/M05 A3023 RMK A01 T00331054  RH  053%=      5-min Rain = 0
KBWS 011225Z 01012KT 03/M06 A3023 RMK A01 T00331057  RH  052%=      5-min Rain = 0
KBWS 011226Z 01012KT 03/M06 A3023 RMK A01 T00331057  RH  051%=      5-min Rain = 0
KBWS 011227Z 01013KT 03/M06 A3023 RMK A01 T00331057  RH  052%=      5-min Rain = 0
KBWS 011228Z 00010G15KT 03/M06 A3023 RMK A01 T00331057  RH  051%=      5-min Rain = 0
KBWS 011229Z 01010KT 03/M06 A3023 RMK A01 T00341056  RH  052%=      5-min Rain = 0
KBWS 011230Z 00011KT 03/M06 A3023 RMK A01 T00331056  RH  052%=      5-min Rain = 0
KBWS 011231Z 36011KT 03/M06 A3023 RMK A01 T00331058  RH  051%=      5-min Rain = 0
KBWS 011232Z 35009KT 03/M06 A3023 RMK A01 T00341055  RH  052%=      5-min Rain = 0
KBWS 011233Z 35008KT 03/M05 A3023 RMK A01 T00331053  RH  053%=      5-min Rain = 0
KBWS 011234Z 35009KT 03/M05 A3024 RMK A01 T00331053  RH  053%=      5-min Rain = 0
KBWS 011235Z 35011KT 03/M05 A3024 RMK A01 T00331054  RH  053%=      5-min Rain = 0
KBWS 011236Z 35009KT 03/M06 A3024 RMK A01 T00331055  RH  053%=      5-min Rain = 0
KBWS 011237Z 35009KT 03/M06 A3024 RMK A01 T00331055  RH  052%=      5-min Rain = 0
KBWS 011238Z 36010KT 03/M06 A3024 RMK A01 T00331057  RH  052%=      5-min Rain = 0
KBWS 011239Z 36011KT 03/M06 A3023 RMK A01 T00331059  RH  051%=      5-min Rain = 0
KBWS 011240Z 00012KT 03/M06 A3023 RMK A01 T00341060  RH  050%=      5-min Rain = 0
KBWS 011241Z 36012KT 04/M06 A3023 RMK A01 T00351062  RH  049%=      5-min Rain = 0
KBWS 011242Z 01009KT 04/M06 A3023 RMK A01 T00361061  RH  049%=      5-min Rain = 0
KBWS 011243Z 01009KT 04/M06 A3023 RMK A01 T00351060  RH  050%=      5-min Rain = 0
KBWS 011244Z 02008KT 04/M06 A3023 RMK A01 T00351061  RH  049%=      5-min Rain = 0
KBWS 011245Z 02008KT 04/M06 A3024 RMK A01 T00351062  RH  049%=      5-min Rain = 0
KBWS 011246Z 02009KT 04/M06 A3024 RMK A01 T00361063  RH  049%=      5-min Rain = 0
KBWS 011247Z 02009KT 04/M06 A3024 RMK A01 T00361063  RH  049%=      5-min Rain = 0
KBWS 011248Z 02008KT 04/M06 A3024 RMK A01 T00361062  RH  049%=      5-min Rain = 0
KBWS 011249Z 02009KT 04/M06 A3024 RMK A01 T00361061  RH  049%=      5-min Rain = 0
KBWS 011250Z 02010KT 04/M06 A3024 RMK A01 T00361060  RH  049%=      5-min Rain = 0
KBWS 011251Z 02009KT 04/M06 A3024 RMK A01 T00351059  RH  050%=      5-min Rain = 0
KBWS 011252Z 03009KT 04/M06 A3024 RMK A01 T00351059  RH  050%=      5-min Rain = 0
KBWS 011253Z 03009KT 04/M06 A3024 RMK A01 T00351059  RH  050%=      5-min Rain = 0
KBWS 011254Z 04009KT 04/M06 A3024 RMK A01 T00351059  RH  050%=      5-min Rain = 0
KBWS 011255Z 05008KT 04/M06 A3024 RMK A01 T00351059  RH  050%=      5-min Rain = 0
KBWS 011256Z 06009KT 04/M06 A3024 RMK A01 T00351057  RH  051%=      5-min Rain = 0
KBWS 011257Z 06009KT 04/M06 A3024 RMK A01 T00361057  RH  051%=      5-min Rain = 0
KBWS 011258Z 06009KT 04/M06 A3024 RMK A01 T00351055  RH  051%=      5-min Rain = 0
KBWS 011259Z 06009KT 04/M06 A3024 RMK A01 T00351055  RH  051%=      5-min Rain = 0
KBWS 011300Z 06010KT 04/M05 A3024 RMK A01 T00361054  RH  052%=      5-min Rain = 0
KBWS 011301Z 06008KT 04/M05 A3024 RMK A01 T00351054  RH  052%=      5-min Rain = 0
KBWS 011302Z 07008KT 04/M05 A3024 RMK A01 T00351051  RH  053%=      5-min Rain = 0
KBWS 011303Z 07009KT 03/M05 A3024 RMK A01 T00341052  RH  053%=      5-min Rain = 0
KBWS 011304Z 06008KT 03/M05 A3024 RMK A01 T00341052  RH  053%=      5-min Rain = 0
KBWS 011305Z 06009KT 03/M05 A3024 RMK A01 T00341051  RH  054%=      5-min Rain = 0
KBWS 011306Z 06008KT 03/M05 A3025 RMK A01 T00341053  RH  053%=      5-min Rain = 0
KBWS 011307Z 05010KT 03/M05 A3025 RMK A01 T00341053  RH  053%=      5-min Rain = 0
KBWS 011308Z 05009KT 03/M06 A3025 RMK A01 T00331055  RH  052%=      5-min Rain = 0
KBWS 011309Z 05009KT 03/M05 A3025 RMK A01 T00331054  RH  053%=      5-min Rain = 0
KBWS 011310Z 04010KT 03/M06 A3025 RMK A01 T00321055  RH  053%=      5-min Rain = 0
KBWS 011311Z 05010KT 03/M06 A3025 RMK A01 T00321056  RH  053%=      5-min Rain = 0
KBWS 011312Z 05011KT 03/M05 A3025 RMK A01 T00311054  RH  053%=      5-min Rain = 0
KBWS 011313Z 05009KT 03/M05 A3025 RMK A01 T00311054  RH  054%=      5-min Rain = 0
KBWS 011314Z 05008KT 03/M05 A3025 RMK A01 T00301052  RH  055%=      5-min Rain = 0
KBWS 011315Z 05009KT 03/M05 A3025 RMK A01 T00301051  RH  055%=      5-min Rain = 0
KBWS 011316Z 05009KT 03/M05 A3025 RMK A01 T00301051  RH  055%=      5-min Rain = 0
KBWS 011317Z 05009KT 03/M05 A3025 RMK A01 T00301051  RH  055%=      5-min Rain = 0
KBWS 011318Z 05010KT 03/M05 A3025 RMK A01 T00301052  RH  055%=      5-min Rain = 0
KBWS 011319Z 05009KT 03/M05 A3025 RMK A01 T00311053  RH  054%=      5-min Rain = 0
KBWS 011320Z 05008KT 03/M05 A3025 RMK A01 T00311052  RH  054%=      5-min Rain = 0
KBWS 011321Z 05011KT 03/M05 A3025 RMK A01 T00311054  RH  054%=      5-min Rain = 0
KBWS 011322Z 04010KT 03/M06 A3025 RMK A01 T00321056  RH  053%=      5-min Rain = 0
KBWS 011323Z 04011KT 03/M06 A3025 RMK A01 T00321055  RH  053%=      5-min Rain = 0
KBWS 011324Z 04012KT 03/M06 A3025 RMK A01 T00321055  RH  053%=      5-min Rain = 0
KBWS 011325Z 03013KT 03/M06 A3025 RMK A01 T00321055  RH  053%=      5-min Rain = 0
KBWS 011326Z 03015KT 03/M05 A3025 RMK A01 T00311054  RH  054%=      5-min Rain = 0
KBWS 011327Z 03013KT 03/M05 A3025 RMK A01 T00301053  RH  055%=      5-min Rain = 0
KBWS 011328Z 03014KT 03/M05 A3025 RMK A01 T00291051  RH  056%=      5-min Rain = 0
KBWS 011329Z 03015KT 03/M05 A3025 RMK A01 T00281049  RH  057%=      5-min Rain = 0
KBWS 011330Z 03015KT 03/M05 A3025 RMK A01 T00271046  RH  059%=      5-min Rain = 0
KBWS 011331Z 03016KT 03/M04 A3025 RMK A01 T00251043  RH  061%=      5-min Rain = 0
KBWS 011332Z 03015G20KT 02/M04 A3026 RMK A01 T00241041  RH  062%=      5-min Rain = 0
KBWS 011333Z 03014KT 02/M04 A3026 RMK A01 T00221040  RH  063%=      5-min Rain = 0
KBWS 011334Z 03014KT 02/M04 A3026 RMK A01 T00221040  RH  064%=      5-min Rain = 0
KBWS 011335Z 03016KT 02/M04 A3026 RMK A01 T00221041  RH  063%=      5-min Rain = 0
KBWS 011336Z 03013G18KT 02/M04 A3026 RMK A01 T00211041  RH  063%=      5-min Rain = 0
KBWS 011337Z 04012KT 02/M04 A3026 RMK A01 T00211041  RH  063%=      5-min Rain = 0
KBWS 011338Z 03012G17KT 02/M04 A3026 RMK A01 T00211042  RH  063%=      5-min Rain = 0
KBWS 011339Z 03015KT 02/M04 A3026 RMK A01 T00211042  RH  063%=      5-min Rain = 0
KBWS 011340Z 03013KT 02/M04 A3026 RMK A01 T00211042  RH  063%=      5-min Rain = 0
KBWS 011341Z 03013KT 02/M04 A3026 RMK A01 T00211042  RH  063%=      5-min Rain = 0
KBWS 011342Z 03012KT 02/M04 A3026 RMK A01 T00211042  RH  063%=      5-min Rain = 0
KBWS 011343Z 02014KT 02/M04 A3026 RMK A01 T00211042  RH  063%=      5-min Rain = 0
KBWS 011344Z 03012KT 02/M04 A3026 RMK A01 T00211043  RH  063%=      5-min Rain = 0
KBWS 011345Z 03012KT 02/M04 A3026 RMK A01 T00211043  RH  063%=      5-min Rain = 0
KBWS 011346Z 03010KT 02/M04 A3026 RMK A01 T00211044  RH  062%=      5-min Rain = 0
KBWS 011347Z 03011KT 02/M05 A3026 RMK A01 T00221045  RH  061%=      5-min Rain = 0
KBWS 011348Z 03010KT 02/M05 A3027 RMK A01 T00221047  RH  060%=      5-min Rain = 0
KBWS 011349Z 04011KT 02/M05 A3027 RMK A01 T00231048  RH  060%=      5-min Rain = 0
KBWS 011350Z 03008KT 02/M05 A3027 RMK A01 T00231048  RH  060%=      5-min Rain = 0
KBWS 011351Z 04009KT 02/M05 A3026 RMK A01 T00231049  RH  059%=      5-min Rain = 0
KBWS 011352Z 04008KT 02/M05 A3026 RMK A01 T00231049  RH  059%=      5-min Rain = 0
KBWS 011353Z 04005KT 02/M05 A3026 RMK A01 T00231049  RH  059%=      5-min Rain = 0
KBWS 011354Z 04007KT 02/M05 A3027 RMK A01 T00241048  RH  059%=      5-min Rain = 0
KBWS 011355Z 04006KT 02/M05 A3027 RMK A01 T00241048  RH  059%=      5-min Rain = 0
KBWS 011356Z 05008KT 02/M05 A3027 RMK A01 T00241050  RH  058%=      5-min Rain = 0
KBWS 011357Z 04008KT 03/M05 A3027 RMK A01 T00251051  RH  057%=      5-min Rain = 0
KBWS 011358Z 06007KT 03/M05 A3027 RMK A01 T00261051  RH  057%=      5-min Rain = 0
KBWS 011359Z 06008KT 03/M05 A3028 RMK A01 T00261049  RH  058%=      5-min Rain = 0
KBWS 011400Z 06008KT 03/M05 A3028 RMK A01 T00271050  RH  057%=      5-min Rain = 0
KBWS 011401Z 06008KT 03/M05 A3028 RMK A01 T00271051  RH  057%=      5-min Rain = 0
KBWS 011402Z 06008KT 03/M05 A3028 RMK A01 T00271049  RH  057%=      5-min Rain = 0
KBWS 011403Z 07009KT 03/M05 A3028 RMK A01 T00271049  RH  057%=      5-min Rain = 0
KBWS 011404Z 06008KT 03/M05 A3028 RMK A01 T00271050  RH  057%=      5-min Rain = 0
KBWS 011405Z 06007KT 03/M05 A3028 RMK A01 T00271049  RH  057%=      5-min Rain = 0
KBWS 011406Z 07007KT 03/M05 A3028 RMK A01 T00271048  RH  058%=      5-min Rain = 0
KBWS 011407Z 07007KT 03/M05 A3029 RMK A01 T00281048  RH  058%=      5-min Rain = 0
KBWS 011408Z 07007KT 03/M05 A3029 RMK A01 T00281049  RH  057%=      5-min Rain = 0
KBWS 011409Z 07008KT 03/M05 A3029 RMK A01 T00281049  RH  057%=      5-min Rain = 0
KBWS 011410Z 07009KT 03/M05 A3029 RMK A01 T00281050  RH  057%=      5-min Rain = 0
KBWS 011411Z 06007KT 03/M05 A3029 RMK A01 T00281050  RH  057%=      5-min Rain = 0
KBWS 011412Z 06006KT 03/M05 A3029 RMK A01 T00281049  RH  057%=      5-min Rain = 0
KBWS 011413Z 06006KT 03/M05 A3029 RMK A01 T00281048  RH  057%=      5-min Rain = 0
KBWS 011414Z 06006KT 03/M05 A303 RMK A01 T00281048  RH  057%=      5-min Rain = 0
KBWS 011415Z 06006KT 03/M05 A303 RMK A01 T00281049  RH  057%=      5-min Rain = 0
KBWS 011416Z 06007KT 03/M05 A303 RMK A01 T00281050  RH  056%=      5-min Rain = 0
KBWS 011417Z 05007KT 03/M05 A303 RMK A01 T00291052  RH  055%=      5-min Rain = 0
KBWS 011418Z 06007KT 03/M05 A303 RMK A01 T00291052  RH  055%=      5-min Rain = 0
KBWS 011419Z 06008KT 03/M05 A303 RMK A01 T00291052  RH  055%=      5-min Rain = 0
KBWS 011420Z 06007KT 03/M05 A303 RMK A01 T00291052  RH  055%=      5-min Rain = 0
KBWS 011421Z 07008KT 03/M05 A303 RMK A01 T00291053  RH  055%=      5-min Rain = 0
KBWS 011422Z 06006KT 03/M05 A3031 RMK A01 T00291053  RH  055%=      5-min Rain = 0
KBWS 011423Z 07006KT 03/M05 A3031 RMK A01 T00291052  RH  055%=      5-min Rain = 0
KBWS 011424Z 07006KT 03/M05 A3031 RMK A01 T00301052  RH  055%=      5-min Rain = 0
KBWS 011425Z 07006KT 03/M05 A3031 RMK A01 T00301053  RH  054%=      5-min Rain = 0
KBWS 011426Z 08006KT 03/M05 A3031 RMK A01 T00301054  RH  054%=      5-min Rain = 0
KBWS 011427Z 07006KT 03/M06 A3031 RMK A01 T00301056  RH  053%=      5-min Rain = 0
KBWS 011428Z 07005KT 03/M06 A3032 RMK A01 T00311056  RH  053%=      5-min Rain = 0
KBWS 011429Z 07005KT 03/M06 A3032 RMK A01 T00311056  RH  053%=      5-min Rain = 0
KBWS 011430Z 07005KT 03/M06 A3032 RMK A01 T00311059  RH  052%=      5-min Rain = 0
KBWS 011431Z 06005KT 03/M06 A3032 RMK A01 T00311059  RH  051%=      5-min Rain = 0
KBWS 011432Z 07005KT 03/M06 A3032 RMK A01 T00321058  RH  052%=      5-min Rain = 0
KBWS 011433Z 07005KT 03/M06 A3032 RMK A01 T00321059  RH  051%=      5-min Rain = 0
KBWS 011434Z 06005KT 03/M06 A3032 RMK A01 T00321058  RH  052%=      5-min Rain = 0
KBWS 011435Z 07004KT 03/M06 A3032 RMK A01 T00321059  RH  051%=      5-min Rain = 0
KBWS 011436Z 06005KT 03/M06 A3032 RMK A01 T00331059  RH  051%=      5-min Rain = 0
KBWS 011437Z 06006KT 03/M06 A3032 RMK A01 T00331063  RH  050%=      5-min Rain = 0
KBWS 011438Z 05005KT 03/M06 A3032 RMK A01 T00331063  RH  049%=      5-min Rain = 0
KBWS 011439Z 05005KT 03/M06 A3032 RMK A01 T00331063  RH  049%=      5-min Rain = 0
KBWS 011440Z 05005KT 03/M07 A3032 RMK A01 T00331067  RH  048%=      5-min Rain = 0
KBWS 011441Z 05005KT 03/M07 A3032 RMK A01 T00331069  RH  047%=      5-min Rain = 0
KBWS 011442Z 05005KT 03/M07 A3032 RMK A01 T00331072  RH  046%=      5-min Rain = 0
KBWS 011443Z 04004KT 03/M07 A3032 RMK A01 T00331071  RH  046%=      5-min Rain = 0
KBWS 011444Z 03004KT 03/M07 A3032 RMK A01 T00331069  RH  047%=      5-min Rain = 0
KBWS 011445Z 04006KT 03/M07 A3032 RMK A01 T00331073  RH  046%=      5-min Rain = 0
KBWS 011446Z 05004KT 03/M08 A3032 RMK A01 T00331077  RH  044%=      5-min Rain = 0
KBWS 011447Z 03005KT 03/M08 A3032 RMK A01 T00341075  RH  045%=      5-min Rain = 0
KBWS 011448Z 03005KT 03/M07 A3033 RMK A01 T00341072  RH  046%=      5-min Rain = 0
KBWS 011449Z 03005KT 03/M07 A3033 RMK A01 T00341072  RH  046%=      5-min Rain = 0
KBWS 011450Z 02005KT 04/M07 A3033 RMK A01 T00351069  RH  046%=      5-min Rain = 0
KBWS 011451Z 02005KT 04/M07 A3033 RMK A01 T00351068  RH  047%=      5-min Rain = 0
KBWS 011452Z 02005KT 04/M07 A3033 RMK A01 T00351067  RH  047%=      5-min Rain = 0
KBWS 011453Z 03005KT 04/M07 A3033 RMK A01 T00351071  RH  046%=      5-min Rain = 0
KBWS 011454Z 02006KT 04/M08 A3033 RMK A01 T00351077  RH  044%=      5-min Rain = 0
KBWS 011455Z 03007KT 04/M09 A3033 RMK A01 T00351088  RH  040%=      5-min Rain = 0
KBWS 011456Z 04007KT 04/M09 A3033 RMK A01 T00351087  RH  040%=      5-min Rain = 0
KBWS 011457Z 04006KT 04/M08 A3033 RMK A01 T00361083  RH  042%=      5-min Rain = 0
KBWS 011458Z 04007KT 04/M09 A3033 RMK A01 T00361085  RH  041%=      5-min Rain = 0
KBWS 011459Z 06007KT 04/M09 A3033 RMK A01 T00371089  RH  039%=      5-min Rain = 0
KBWS 011500Z 05008KT 04/M09 A3033 RMK A01 T00371090  RH  039%=      5-min Rain = 0
KBWS 011501Z 05007KT 04/M09 A3033 RMK A01 T00371093  RH  038%=      5-min Rain = 0
KBWS 011502Z 07008KT 04/M09 A3033 RMK A01 T00371094  RH  038%=      5-min Rain = 0
KBWS 011503Z 07009KT 04/M09 A3033 RMK A01 T00371094  RH  038%=      5-min Rain = 0
KBWS 011504Z 07008KT 04/M09 A3033 RMK A01 T00381092  RH  038%=      5-min Rain = 0
KBWS 011505Z 07008KT 04/M09 A3034 RMK A01 T00381091  RH  038%=      5-min Rain = 0
KBWS 011506Z 07008KT 04/M09 A3034 RMK A01 T00391092  RH  038%=      5-min Rain = 0
KBWS 011507Z 07007KT 04/M10 A3034 RMK A01 T00391095  RH  037%=      5-min Rain = 0
KBWS 011508Z 07007KT 04/M09 A3034 RMK A01 T00391092  RH  038%=      5-min Rain = 0
KBWS 011509Z 08008KT 04/M09 A3034 RMK A01 T00391093  RH  038%=      5-min Rain = 0
KBWS 011510Z 06009KT 04/M10 A3034 RMK A01 T00391097  RH  036%=      5-min Rain = 0
KBWS 011511Z 07009KT 04/M10 A3034 RMK A01 T00391097  RH  036%=      5-min Rain = 0
KBWS 011512Z 08008KT 04/M10 A3034 RMK A01 T00391095  RH  037%=      5-min Rain = 0
KBWS 011513Z 07009KT 04/M10 A3034 RMK A01 T00391097  RH  036%=      5-min Rain = 0
KBWS 011514Z 07008KT 04/M10 A3034 RMK A01 T00391100  RH  035%=      5-min Rain = 0
KBWS 011515Z 08008KT 04/M10 A3034 RMK A01 T00391097  RH  036%=      5-min Rain = 0
KBWS 011516Z 08008KT 04/M10 A3034 RMK A01 T00391099  RH  036%=      5-min Rain = 0
KBWS 011517Z 08010KT 04/M10 A3034 RMK A01 T00391101  RH  035%=      5-min Rain = 0
KBWS 011518Z 07009KT 04/M10 A3034 RMK A01 T00391101  RH  035%=      5-min Rain = 0
KBWS 011519Z 07008KT 04/M10 A3034 RMK A01 T00391100  RH  035%=      5-min Rain = 0
KBWS 011520Z 06007KT 04/M10 A3034 RMK A01 T00391097  RH  036%=      5-min Rain = 0
KBWS 011521Z 06006KT 04/M10 A3035 RMK A01 T00391096  RH  036%=      5-min Rain = 0
KBWS 011522Z 05008KT 04/M10 A3035 RMK A01 T00401096  RH  036%=      5-min Rain = 0
KBWS 011523Z 06008KT 04/M10 A3035 RMK A01 T00401098  RH  036%=      5-min Rain = 0
KBWS 011524Z 06010KT 04/M10 A3035 RMK A01 T00401097  RH  036%=      5-min Rain = 0
KBWS 011525Z 05009KT 04/M10 A3035 RMK A01 T00401098  RH  036%=      5-min Rain = 0
KBWS 011526Z 06008KT 04/M10 A3035 RMK A01 T00401099  RH  036%=      5-min Rain = 0
KBWS 011527Z 04009KT 04/M09 A3035 RMK A01 T00401094  RH  037%=      5-min Rain = 0
KBWS 011528Z 04010KT 04/M10 A3035 RMK A01 T00401099  RH  035%=      5-min Rain = 0
KBWS 011529Z 04010KT 04/M10 A3035 RMK A01 T00401102  RH  035%=      5-min Rain = 0
KBWS 011530Z 05010KT 04/M10 A3035 RMK A01 T00401102  RH  035%=      5-min Rain = 0
KBWS 011531Z 05010KT 04/M10 A3035 RMK A01 T00411101  RH  035%=      5-min Rain = 0
KBWS 011532Z 05009KT 04/M10 A3035 RMK A01 T00401100  RH  035%=      5-min Rain = 0
KBWS 011533Z 04008KT 04/M10 A3035 RMK A01 T00401099  RH  036%=      5-min Rain = 0
KBWS 011534Z 04008KT 04/M10 A3036 RMK A01 T00411097  RH  036%=      5-min Rain = 0
KBWS 011535Z 04008KT 04/M10 A3036 RMK A01 T00421098  RH  035%=      5-min Rain = 0
KBWS 011536Z 05009KT 04/M10 A3036 RMK A01 T00421099  RH  035%=      5-min Rain = 0
KBWS 011537Z 05010KT 04/M10 A3036 RMK A01 T00421099  RH  035%=      5-min Rain = 0
KBWS 011538Z 05009KT 04/M10 A3036 RMK A01 T00421099  RH  035%=      5-min Rain = 0
KBWS 011539Z 06009KT 04/M10 A3036 RMK A01 T00411101  RH  035%=      5-min Rain = 0
KBWS 011540Z 05009KT 04/M10 A3036 RMK A01 T00401097  RH  036%=      5-min Rain = 0
KBWS 011541Z 05008KT 04/M10 A3036 RMK A01 T00411097  RH  036%=      5-min Rain = 0
KBWS 011542Z 06009KT 04/M10 A3036 RMK A01 T00411098  RH  036%=      5-min Rain = 0
KBWS 011543Z 05011KT 04/M10 A3036 RMK A01 T00411097  RH  036%=      5-min Rain = 0
KBWS 011544Z 05011KT 04/M10 A3036 RMK A01 T00411102  RH  034%=      5-min Rain = 0
KBWS 011545Z 05009KT 04/M10 A3036 RMK A01 T00411104  RH  034%=      5-min Rain = 0
KBWS 011546Z 05010KT 04/M10 A3036 RMK A01 T00411104  RH  034%=      5-min Rain = 0
KBWS 011547Z 05010KT 04/M10 A3036 RMK A01 T00411103  RH  034%=      5-min Rain = 0
KBWS 011548Z 06008KT 04/M10 A3036 RMK A01 T00411102  RH  035%=      5-min Rain = 0
KBWS 011549Z 05007KT 04/M10 A3036 RMK A01 T00401099  RH  036%=      5-min Rain = 0
KBWS 011550Z 05007KT 04/M10 A3036 RMK A01 T00401099  RH  035%=      5-min Rain = 0
KBWS 011551Z 05008KT 04/M10 A3036 RMK A01 T00401099  RH  035%=      5-min Rain = 0
KBWS 011552Z 05007KT 04/M10 A3036 RMK A01 T00411098  RH  036%=      5-min Rain = 0
KBWS 011553Z 07008KT 04/M10 A3036 RMK A01 T00411095  RH  036%=      5-min Rain = 0
KBWS 011554Z 06008KT 04/M10 A3036 RMK A01 T00421096  RH  036%=      5-min Rain = 0
KBWS 011555Z 05009KT 04/M10 A3036 RMK A01 T00421097  RH  036%=      5-min Rain = 0
KBWS 011556Z 05008KT 04/M10 A3036 RMK A01 T00421101  RH  035%=      5-min Rain = 0
KBWS 011557Z 05009KT 04/M10 A3036 RMK A01 T00411099  RH  035%=      5-min Rain = 0
KBWS 011558Z 06008KT 04/M10 A3036 RMK A01 T00411098  RH  035%=      5-min Rain = 0
KBWS 011559Z 07008KT 04/M10 A3036 RMK A01 T00411098  RH  035%=      5-min Rain = 0
KBWS 011600Z 07007KT 04/M10 A3036 RMK A01 T00411100  RH  035%=      5-min Rain = 0
KBWS 011601Z 05006KT 04/M10 A3036 RMK A01 T00401101  RH  035%=      5-min Rain = 0
KBWS 011602Z 05006KT 04/M10 A3036 RMK A01 T00401097  RH  036%=      5-min Rain = 0
KBWS 011603Z 05008KT 04/M10 A3036 RMK A01 T00411096  RH  036%=      5-min Rain = 0
KBWS 011604Z 06009KT 04/M10 A3036 RMK A01 T00421097  RH  035%=      5-min Rain = 0
KBWS 011605Z 05008KT 04/M10 A3036 RMK A01 T00421100  RH  035%=      5-min Rain = 0
KBWS 011606Z 05009KT 04/M10 A3036 RMK A01 T00421098  RH  035%=      5-min Rain = 0
KBWS 011607Z 04009KT 04/M10 A3036 RMK A01 T00421099  RH  035%=      5-min Rain = 0
KBWS 011608Z 04008KT 04/M10 A3036 RMK A01 T00421103  RH  034%=      5-min Rain = 0
KBWS 011609Z 05008KT 04/M10 A3036 RMK A01 T00411103  RH  034%=      5-min Rain = 0
KBWS 011610Z 05009KT 04/M10 A3036 RMK A01 T00421101  RH  035%=      5-min Rain = 0
KBWS 011611Z 04009KT 04/M10 A3036 RMK A01 T00431101  RH  034%=      5-min Rain = 0
KBWS 011612Z 04009KT 04/M10 A3036 RMK A01 T00421102  RH  034%=      5-min Rain = 0
KBWS 011613Z 05008KT 04/M10 A3037 RMK A01 T00431100  RH  034%=      5-min Rain = 0
KBWS 011614Z 05008KT 04/M10 A3037 RMK A01 T00431098  RH  035%=      5-min Rain = 0
KBWS 011615Z 06008KT 04/M10 A3037 RMK A01 T00441099  RH  035%=      5-min Rain = 0
KBWS 011616Z 06009KT 04/M10 A3037 RMK A01 T00431097  RH  035%=      5-min Rain = 0
KBWS 011617Z 05010KT 04/M10 A3037 RMK A01 T00431098  RH  035%=      5-min Rain = 0
KBWS 011618Z 05010KT 04/M10 A3037 RMK A01 T00431099  RH  035%=      5-min Rain = 0
KBWS 011619Z 04009KT 04/M10 A3037 RMK A01 T00421100  RH  035%=      5-min Rain = 0
KBWS 011620Z 05009KT 04/M10 A3037 RMK A01 T00421099  RH  035%=      5-min Rain = 0
KBWS 011621Z 04006KT 04/M10 A3037 RMK A01 T00421100  RH  035%=      5-min Rain = 0
KBWS 011622Z 05009KT 04/M10 A3037 RMK A01 T00421099  RH  035%=      5-min Rain = 0
KBWS 011623Z 04007KT 04/M10 A3037 RMK A01 T00421102  RH  034%=      5-min Rain = 0
KBWS 011624Z 03009KT 04/M10 A3037 RMK A01 T00421102  RH  034%=      5-min Rain = 0
KBWS 011625Z 03006KT 04/M10 A3037 RMK A01 T00421101  RH  035%=      5-min Rain = 0
KBWS 011626Z 02005KT 04/M10 A3037 RMK A01 T00421101  RH  035%=      5-min Rain = 0
KBWS 011627Z 01005KT 04/M10 A3037 RMK A01 T00421099  RH  035%=      5-min Rain = 0
KBWS 011628Z 36006KT 04/M10 A3037 RMK A01 T00421099  RH  035%=      5-min Rain = 0
KBWS 011629Z 01006KT 04/M10 A3037 RMK A01 T00431100  RH  035%=      5-min Rain = 0
KBWS 011630Z 03006KT 04/M10 A3037 RMK A01 T00431102  RH  034%=      5-min Rain = 0
KBWS 011631Z 03009KT 04/M10 A3037 RMK A01 T00431100  RH  035%=      5-min Rain = 0
KBWS 011632Z 04007KT 04/M10 A3037 RMK A01 T00441099  RH  035%=      5-min Rain = 0
KBWS 011633Z 04006KT 04/M10 A3037 RMK A01 T00441098  RH  035%=      5-min Rain = 0
KBWS 011634Z 04006KT 05/M10 A3038 RMK A01 T00451099  RH  035%=      5-min Rain = 0
KBWS 011635Z 05008KT 05/M09 A3038 RMK A01 T00461093  RH  036%=      5-min Rain = 0
KBWS 011636Z 06008KT 05/M09 A3038 RMK A01 T00461087  RH  037%=      5-min Rain = 0
KBWS 011637Z 06008KT 05/M08 A3038 RMK A01 T00451083  RH  039%=      5-min Rain = 0
KBWS 011638Z 05007KT 04/M08 A3038 RMK A01 T00441081  RH  040%=      5-min Rain = 0
KBWS 011639Z 06007KT 04/M08 A3038 RMK A01 T00441081  RH  040%=      5-min Rain = 0
KBWS 011640Z 07006KT 05/M09 A3038 RMK A01 T00451089  RH  037%=      5-min Rain = 0
KBWS 011641Z 08010KT 05/M09 A3038 RMK A01 T00451086  RH  038%=      5-min Rain = 0
KBWS 011642Z 06009KT 05/M09 A3038 RMK A01 T00461087  RH  038%=      5-min Rain = 0
KBWS 011643Z 05006KT 05/M09 A3038 RMK A01 T00451087  RH  037%=      5-min Rain = 0
KBWS 011644Z 06008KT 05/M09 A3038 RMK A01 T00451088  RH  038%=      5-min Rain = 0
KBWS 011645Z 07008KT 05/M08 A3038 RMK A01 T00451083  RH  039%=      5-min Rain = 0
KBWS 011646Z 07007KT 05/M08 A3038 RMK A01 T00451083  RH  039%=      5-min Rain = 0
KBWS 011647Z 08006KT 04/M09 A3038 RMK A01 T00441085  RH  038%=      5-min Rain = 0
KBWS 011648Z 07005KT 05/M08 A3038 RMK A01 T00451083  RH  039%=      5-min Rain = 0
KBWS 011649Z 06007KT 05/M08 A3038 RMK A01 T00461082  RH  039%=      5-min Rain = 0
KBWS 011650Z 06007KT 05/M08 A3038 RMK A01 T00461082  RH  039%=      5-min Rain = 0
KBWS 011651Z 07007KT 04/M08 A3038 RMK A01 T00441084  RH  039%=      5-min Rain = 0
KBWS 011652Z 06006KT 04/M09 A3038 RMK A01 T00441085  RH  038%=      5-min Rain = 0
KBWS 011653Z 05005KT 04/M09 A3038 RMK A01 T00441085  RH  039%=      5-min Rain = 0
KBWS 011654Z 05006KT 04/M09 A3038 RMK A01 T00441086  RH  038%=      5-min Rain = 0
KBWS 011655Z 06008KT 04/M08 A3038 RMK A01 T00431084  RH  039%=      5-min Rain = 0
KBWS 011656Z 06007KT 04/M08 A3038 RMK A01 T00441083  RH  039%=      5-min Rain = 0
KBWS 011657Z 06005KT 04/M09 A3038 RMK A01 T00431086  RH  038%=      5-min Rain = 0
KBWS 011658Z 06006KT 04/M09 A3038 RMK A01 T00421086  RH  039%=      5-min Rain = 0
KBWS 011659Z 05006KT 04/M09 A3038 RMK A01 T00431086  RH  039%=      5-min Rain = 0
KBWS 011700Z 07005KT 04/M09 A3038 RMK A01 T00441085  RH  039%=      5-min Rain = 0
KBWS 011701Z 07005KT 04/M09 A3038 RMK A01 T00441085  RH  038%=      5-min Rain = 0
KBWS 011702Z 05005KT 04/M09 A3038 RMK A01 T00441085  RH  039%=      5-min Rain = 0
KBWS 011703Z 04007KT 04/M08 A3038 RMK A01 T00441084  RH  039%=      5-min Rain = 0
KBWS 011704Z 05008KT 04/M08 A3038 RMK A01 T00441083  RH  039%=      5-min Rain = 0
KBWS 011705Z 05007KT 05/M09 A3038 RMK A01 T00451085  RH  038%=      5-min Rain = 0
KBWS 011706Z 05007KT 05/M09 A3038 RMK A01 T00451086  RH  038%=      5-min Rain = 0
KBWS 011707Z 05006KT 04/M09 A3038 RMK A01 T00441088  RH  038%=      5-min Rain = 0
KBWS 011708Z 04005KT 04/M09 A3038 RMK A01 T00441087  RH  038%=      5-min Rain = 0
KBWS 011709Z 03004KT 04/M09 A3038 RMK A01 T00441087  RH  038%=      5-min Rain = 0
KBWS 011710Z 04007KT 04/M09 A3038 RMK A01 T00441085  RH  038%=      5-min Rain = 0
KBWS 011711Z 05005KT 05/M09 A3038 RMK A01 T00451085  RH  038%=      5-min Rain = 0
KBWS 011712Z 06004KT 05/M08 A3038 RMK A01 T00451081  RH  039%=      5-min Rain = 0
KBWS 011713Z 06005KT 05/M08 A3038 RMK A01 T00461084  RH  038%=      5-min Rain = 0
KBWS 011714Z 07004KT 05/M08 A3038 RMK A01 T00461084  RH  038%=      5-min Rain = 0
KBWS 011715Z 05003KT 05/M09 A3038 RMK A01 T00461085  RH  038%=      5-min Rain = 0
KBWS 011716Z 03004KT 05/M09 A3038 RMK A01 T00461085  RH  038%=      5-min Rain = 0
KBWS 011717Z 03005KT 05/M09 A3038 RMK A01 T00461088  RH  037%=      5-min Rain = 0
KBWS 011718Z 04004KT 05/M09 A3038 RMK A01 T00461087  RH  038%=      5-min Rain = 0
KBWS 011719Z 04005KT 05/M09 A3038 RMK A01 T00461085  RH  038%=      5-min Rain = 0
KBWS 011720Z 05003KT 05/M09 A3038 RMK A01 T00461087  RH  037%=      5-min Rain = 0
KBWS 011721Z 05004KT 05/M09 A3038 RMK A01 T00461086  RH  038%=      5-min Rain = 0
KBWS 011722Z 06004KT 05/M09 A3038 RMK A01 T00461087  RH  037%=      5-min Rain = 0
KBWS 011723Z 06004KT 05/M09 A3039 RMK A01 T00461088  RH  037%=      5-min Rain = 0
KBWS 011724Z 06004KT 05/M09 A3039 RMK A01 T00461086  RH  038%=      5-min Rain = 0
KBWS 011725Z 07004KT 05/M09 A3039 RMK A01 T00461085  RH  038%=      5-min Rain = 0
KBWS 011726Z 06004KT 05/M08 A3039 RMK A01 T00471082  RH  039%=      5-min Rain = 0
KBWS 011727Z 02003KT 05/M08 A3039 RMK A01 T00471082  RH  039%=      5-min Rain = 0
KBWS 011728Z 06004KT 05/M08 A3039 RMK A01 T00471083  RH  038%=      5-min Rain = 0
KBWS 011729Z 05004KT 05/M08 A3039 RMK A01 T00481082  RH  038%=      5-min Rain = 0
KBWS 011730Z 07004KT 05/M09 A3039 RMK A01 T00491087  RH  037%=      5-min Rain = 0
KBWS 011731Z 08004KT 05/M08 A3038 RMK A01 T00481084  RH  038%=      5-min Rain = 0
KBWS 011732Z 09004KT 05/M08 A3038 RMK A01 T00481084  RH  038%=      5-min Rain = 0
KBWS 011733Z 06004KT 05/M08 A3038 RMK A01 T00471083  RH  038%=      5-min Rain = 0
KBWS 011734Z 06003KT 05/M08 A3038 RMK A01 T00481082  RH  038%=      5-min Rain = 0
KBWS 011735Z 09002KT 05/M08 A3038 RMK A01 T00481082  RH  038%=      5-min Rain = 0
KBWS 011736Z 10003KT 05/M08 A3038 RMK A01 T00491084  RH  038%=      5-min Rain = 0
KBWS 011737Z 09003KT 05/M09 A3038 RMK A01 T00491087  RH  037%=      5-min Rain = 0
KBWS 011738Z 08004KT 05/M09 A3038 RMK A01 T00491086  RH  037%=      5-min Rain = 0
KBWS 011739Z 08004KT 05/M09 A3038 RMK A01 T00491088  RH  036%=      5-min Rain = 0
KBWS 011740Z 07003KT 05/M09 A3039 RMK A01 T00481090  RH  036%=      5-min Rain = 0
KBWS 011741Z 08003KT 05/M09 A3039 RMK A01 T00471089  RH  037%=      5-min Rain = 0
KBWS 011742Z 08002KT 05/M09 A3039 RMK A01 T00481087  RH  037%=      5-min Rain = 0
KBWS 011743Z 08001KT 05/M09 A3039 RMK A01 T00481091  RH  036%=      5-min Rain = 0
KBWS 011744Z 11001KT 05/M09 A3039 RMK A01 T00471089  RH  036%=      5-min Rain = 0
KBWS 011745Z 11002KT 05/M09 A3039 RMK A01 T00481087  RH  037%=      5-min Rain = 0
KBWS 011746Z 09003KT 05/M09 A3039 RMK A01 T00481087  RH  037%=      5-min Rain = 0
KBWS 011747Z 07002KT 05/M09 A3039 RMK A01 T00491086  RH  037%=      5-min Rain = 0
KBWS 011748Z 10002KT 05/M09 A3039 RMK A01 T00501088  RH  036%=      5-min Rain = 0
KBWS 011749Z 09001KT 05/M09 A3039 RMK A01 T00491090  RH  036%=      5-min Rain = 0
KBWS 011750Z 07001KT 05/M09 A3039 RMK A01 T00491089  RH  036%=      5-min Rain = 0
KBWS 011751Z 03000KT 05/M09 A3039 RMK A01 T00491089  RH  036%=      5-min Rain = 0
KBWS 011752Z 00000KT 05/M09 A3039 RMK A01 T00501087  RH  036%=      5-min Rain = 0
KBWS 011753Z 35001KT 05/M08 A3039 RMK A01 T00521083  RH  037%=      5-min Rain = 0
KBWS 011754Z 34003KT 05/M08 A3039 RMK A01 T00531084  RH  036%=      5-min Rain = 0
KBWS 011755Z 33002KT 05/M09 A3039 RMK A01 T00531088  RH  035%=      5-min Rain = 0
KBWS 011756Z 00002KT 05/M09 A3039 RMK A01 T00541086  RH  036%=      5-min Rain = 0
KBWS 011757Z 36002KT 05/M09 A3039 RMK A01 T00541088  RH  035%=      5-min Rain = 0
KBWS 011758Z 35003KT 05/M09 A3039 RMK A01 T00541089  RH  035%=      5-min Rain = 0
KBWS 011759Z 36002KT 05/M09 A3039 RMK A01 T00531092  RH  034%=      5-min Rain = 0
KBWS 011800Z 05001KT 05/M10 A3039 RMK A01 T00521095  RH  034%=      5-min Rain = 0
KBWS 011801Z 01001KT 05/M09 A3039 RMK A01 T00521094  RH  034%=      5-min Rain = 0
KBWS 011802Z 35002KT 05/M09 A3039 RMK A01 T00521093  RH  034%=      5-min Rain = 0
KBWS 011803Z 35003KT 05/M09 A3039 RMK A01 T00531092  RH  034%=      5-min Rain = 0
KBWS 011804Z 02002KT 05/M09 A3039 RMK A01 T00541092  RH  034%=      5-min Rain = 0
KBWS 011805Z 04002KT 05/M09 A3039 RMK A01 T00541093  RH  034%=      5-min Rain = 0
KBWS 011806Z 03003KT 06/M09 A3039 RMK A01 T00551091  RH  034%=      5-min Rain = 0
KBWS 011807Z 03004KT 06/M09 A3039 RMK A01 T00561094  RH  033%=      5-min Rain = 0
KBWS 011808Z 03003KT 06/M10 A3039 RMK A01 T00561098  RH  032%=      5-min Rain = 0
KBWS 011809Z 03003KT 06/M10 A304 RMK A01 T00561101  RH  031%=      5-min Rain = 0
KBWS 011810Z 04002KT 06/M10 A304 RMK A01 T00551102  RH  031%=      5-min Rain = 0
KBWS 011811Z 05004KT 06/M10 A3039 RMK A01 T00551102  RH  031%=      5-min Rain = 0
KBWS 011812Z 06003KT 06/M10 A3039 RMK A01 T00551104  RH  031%=      5-min Rain = 0
KBWS 011813Z 06003KT 05/M10 A3039 RMK A01 T00541104  RH  031%=      5-min Rain = 0
KBWS 011814Z 07001KT 05/M10 A3039 RMK A01 T00541102  RH  031%=      5-min Rain = 0
KBWS 011815Z 03002KT 06/M10 A304 RMK A01 T00551100  RH  032%=      5-min Rain = 0
KBWS 011816Z 01005KT 06/M10 A304 RMK A01 T00561102  RH  031%=      5-min Rain = 0
KBWS 011817Z 01004KT 06/M11 A304 RMK A01 T00571110  RH  029%=      5-min Rain = 0
KBWS 011818Z 01004KT 06/M11 A304 RMK A01 T00571109  RH  029%=      5-min Rain = 0
KBWS 011819Z 03007KT 06/M11 A304 RMK A01 T00571110  RH  029%=      5-min Rain = 0
KBWS 011820Z 02007KT 06/M11 A304 RMK A01 T00571112  RH  028%=      5-min Rain = 0
KBWS 011821Z 02007KT 06/M11 A304 RMK A01 T00571113  RH  028%=      5-min Rain = 0
KBWS 011822Z 03007KT 06/M11 A304 RMK A01 T00571113  RH  028%=      5-min Rain = 0
KBWS 011823Z 03005KT 06/M11 A304 RMK A01 T00571114  RH  028%=      5-min Rain = 0
KBWS 011824Z 04004KT 06/M11 A304 RMK A01 T00561114  RH  028%=      5-min Rain = 0
KBWS 011825Z 04003KT 06/M11 A3039 RMK A01 T00561113  RH  028%=      5-min Rain = 0
KBWS 011826Z 02003KT 06/M11 A3039 RMK A01 T00571113  RH  028%=      5-min Rain = 0
KBWS 011827Z 01002KT 06/M11 A3039 RMK A01 T00571114  RH  028%=      5-min Rain = 0
KBWS 011828Z 04003KT 06/M11 A3039 RMK A01 T00591110  RH  029%=      5-min Rain = 0
KBWS 011829Z 05003KT 06/M11 A3039 RMK A01 T00601112  RH  028%=      5-min Rain = 0
KBWS 011830Z 04004KT 06/M11 A3039 RMK A01 T00601113  RH  028%=      5-min Rain = 0
KBWS 011831Z 06007KT 06/M11 A3039 RMK A01 T00611113  RH  027%=      5-min Rain = 0
KBWS 011832Z 07006KT 06/M12 A3039 RMK A01 T00611118  RH  026%=      5-min Rain = 0
KBWS 011833Z 07006KT 06/M12 A3039 RMK A01 T00601117  RH  027%=      5-min Rain = 0
KBWS 011834Z 06008KT 06/M12 A3039 RMK A01 T00611115  RH  027%=      5-min Rain = 0
KBWS 011835Z 06006KT 06/M12 A3039 RMK A01 T00611115  RH  027%=      5-min Rain = 0
KBWS 011836Z 05006KT 06/M12 A3039 RMK A01 T00621117  RH  026%=      5-min Rain = 0
KBWS 011837Z 06005KT 06/M12 A3039 RMK A01 T00621118  RH  026%=      5-min Rain = 0
KBWS 011838Z 07003KT 06/M12 A3039 RMK A01 T00621119  RH  026%=      5-min Rain = 0
KBWS 011839Z 06003KT 06/M12 A3039 RMK A01 T00621115  RH  027%=      5-min Rain = 0
KBWS 011840Z 05003KT 06/M12 A3039 RMK A01 T00631115  RH  027%=      5-min Rain = 0
KBWS 011841Z 07005KT 06/M11 A3039 RMK A01 T00641113  RH  027%=      5-min Rain = 0
KBWS 011842Z 08007KT 06/M12 A3039 RMK A01 T00641118  RH  026%=      5-min Rain = 0
KBWS 011843Z 08008KT 06/M12 A3039 RMK A01 T00631117  RH  026%=      5-min Rain = 0
KBWS 011844Z 07008KT 07/M11 A3039 RMK A01 T00651114  RH  027%=      5-min Rain = 0
KBWS 011845Z 08008KT 07/M12 A3039 RMK A01 T00661116  RH  026%=      5-min Rain = 0
KBWS 011846Z 06007KT 07/M12 A3039 RMK A01 T00651119  RH  026%=      5-min Rain = 0
KBWS 011847Z 06007KT 06/M12 A3039 RMK A01 T00641119  RH  026%=      5-min Rain = 0
KBWS 011848Z 05009KT 06/M12 A3039 RMK A01 T00641115  RH  026%=      5-min Rain = 0
KBWS 011849Z 06009KT 07/M12 A3039 RMK A01 T00671117  RH  026%=      5-min Rain = 0
KBWS 011850Z 06009G15KT 07/M12 A3039 RMK A01 T00681119  RH  025%=      5-min Rain = 0
KBWS 011851Z 06011KT 07/M12 A3039 RMK A01 T00691120  RH  025%=      5-min Rain = 0
KBWS 011852Z 06009KT 07/M13 A3039 RMK A01 T00661128  RH  024%=      5-min Rain = 0
KBWS 011853Z 07012KT 07/M13 A3038 RMK A01 T00651127  RH  024%=      5-min Rain = 0
KBWS 011854Z 06010KT 06/M12 A3038 RMK A01 T00641124  RH  024%=      5-min Rain = 0
KBWS 011855Z 05009KT 07/M12 A3038 RMK A01 T00651122  RH  025%=      5-min Rain = 0
KBWS 011856Z 04008KT 07/M12 A3038 RMK A01 T00651124  RH  024%=      5-min Rain = 0
KBWS 011857Z 03009KT 07/M13 A3038 RMK A01 T00651126  RH  024%=      5-min Rain = 0
KBWS 011858Z 04009KT 07/M13 A3038 RMK A01 T00651128  RH  024%=      5-min Rain = 0
KBWS 011859Z 06009KT 07/M12 A3038 RMK A01 T00661122  RH  025%=      5-min Rain = 0
KBWS 011900Z 07006KT 07/M12 A3038 RMK A01 T00671123  RH  024%=      5-min Rain = 0
KBWS 011901Z 07009KT 07/M12 A3038 RMK A01 T00661124  RH  024%=      5-min Rain = 0
KBWS 011902Z 07008KT 07/M12 A3038 RMK A01 T00671120  RH  025%=      5-min Rain = 0
KBWS 011903Z 07011KT 07/M12 A3038 RMK A01 T00671121  RH  025%=      5-min Rain = 0
KBWS 011904Z 08010KT 07/M12 A3038 RMK A01 T00671123  RH  024%=      5-min Rain = 0
KBWS 011905Z 06011KT 07/M12 A3038 RMK A01 T00661124  RH  024%=      5-min Rain = 0
KBWS 011906Z 06010KT 07/M12 A3038 RMK A01 T00681119  RH  025%=      5-min Rain = 0
KBWS 011907Z 07009KT 07/M12 A3038 RMK A01 T00691123  RH  024%=      5-min Rain = 0
KBWS 011908Z 07012KT 07/M12 A3038 RMK A01 T00691121  RH  024%=      5-min Rain = 0
KBWS 011909Z 05010KT 07/M12 A3038 RMK A01 T00691124  RH  024%=      5-min Rain = 0
KBWS 011910Z 04010KT 07/M12 A3038 RMK A01 T00691124  RH  024%=      5-min Rain = 0
KBWS 011911Z 05010KT 07/M12 A3038 RMK A01 T00701124  RH  024%=      5-min Rain = 0
KBWS 011912Z 06010KT 07/M13 A3038 RMK A01 T00701127  RH  023%=      5-min Rain = 0
KBWS 011913Z 05013KT 07/M13 A3038 RMK A01 T00701129  RH  023%=      5-min Rain = 0
KBWS 011914Z 04014KT 07/M13 A3038 RMK A01 T00691129  RH  023%=      5-min Rain = 0
KBWS 011915Z 03012KT 07/M13 A3038 RMK A01 T00691129  RH  023%=      5-min Rain = 0
KBWS 011916Z 03011KT 07/M13 A3038 RMK A01 T00701130  RH  023%=      5-min Rain = 0
KBWS 011917Z 04010KT 07/M13 A3038 RMK A01 T00691130  RH  023%=      5-min Rain = 0
KBWS 011918Z 04012KT 07/M13 A3038 RMK A01 T00701128  RH  023%=      5-min Rain = 0
KBWS 011919Z 05011KT 07/M13 A3038 RMK A01 T00731127  RH  023%=      5-min Rain = 0
KBWS 011920Z 05010KT 07/M13 A3038 RMK A01 T00731128  RH  022%=      5-min Rain = 0
KBWS 011921Z 05008KT 07/M13 A3038 RMK A01 T00721127  RH  023%=      5-min Rain = 0
KBWS 011922Z 03012KT 07/M13 A3038 RMK A01 T00711127  RH  023%=      5-min Rain = 0
KBWS 011923Z 03011KT 07/M13 A3038 RMK A01 T00721127  RH  023%=      5-min Rain = 0
KBWS 011924Z 04010KT 08/M13 A3038 RMK A01 T00751129  RH  022%=      5-min Rain = 0
KBWS 011925Z 05012KT 08/M13 A3038 RMK A01 T00751126  RH  023%=      5-min Rain = 0
KBWS 011926Z 03010KT 08/M13 A3038 RMK A01 T00751129  RH  022%=      5-min Rain = 0
KBWS 011927Z 02009KT 07/M14 A3038 RMK A01 T00721136  RH  021%=      5-min Rain = 0
KBWS 011928Z 02009KT 07/M13 A3038 RMK A01 T00711133  RH  022%=      5-min Rain = 0
KBWS 011929Z 07008KT 07/M13 A3038 RMK A01 T00711133  RH  022%=      5-min Rain = 0
KBWS 011930Z 08008KT 07/M13 A3038 RMK A01 T00711129  RH  023%=      5-min Rain = 0
KBWS 011931Z 06009KT 07/M13 A3038 RMK A01 T00711128  RH  023%=      5-min Rain = 0
KBWS 011932Z 07010KT 07/M12 A3038 RMK A01 T00711121  RH  024%=      5-min Rain = 0
KBWS 011933Z 06010KT 07/M13 A3038 RMK A01 T00701125  RH  023%=      5-min Rain = 0
KBWS 011934Z 06009KT 07/M13 A3038 RMK A01 T00701126  RH  023%=      5-min Rain = 0
KBWS 011935Z 04008KT 07/M13 A3038 RMK A01 T00691126  RH  023%=      5-min Rain = 0
KBWS 011936Z 04008KT 07/M13 A3038 RMK A01 T00691126  RH  023%=      5-min Rain = 0
KBWS 011937Z 05007KT 07/M13 A3037 RMK A01 T00701125  RH  024%=      5-min Rain = 0
KBWS 011938Z 06008KT 07/M12 A3037 RMK A01 T00711122  RH  024%=      5-min Rain = 0
KBWS 011939Z 06013KT 07/M12 A3037 RMK A01 T00721121  RH  024%=      5-min Rain = 0
KBWS 011940Z 06012KT 07/M12 A3037 RMK A01 T00721120  RH  024%=      5-min Rain = 0
KBWS 011941Z 05010KT 07/M12 A3037 RMK A01 T00731122  RH  024%=      5-min Rain = 0
KBWS 011942Z 07010KT 07/M12 A3037 RMK A01 T00721121  RH  024%=      5-min Rain = 0
KBWS 011943Z 07009KT 07/M12 A3037 RMK A01 T00721122  RH  024%=      5-min Rain = 0
KBWS 011944Z 04007KT 07/M12 A3037 RMK A01 T00711124  RH  023%=      5-min Rain = 0
KBWS 011945Z 04007KT 07/M13 A3037 RMK A01 T00711126  RH  023%=      5-min Rain = 0
KBWS 011946Z 03006KT 07/M13 A3037 RMK A01 T00721127  RH  023%=      5-min Rain = 0
KBWS 011947Z 03007KT 07/M13 A3037 RMK A01 T00711129  RH  023%=      5-min Rain = 0
KBWS 011948Z 04008KT 07/M13 A3037 RMK A01 T00701128  RH  023%=      5-min Rain = 0
KBWS 011949Z 06010KT 07/M13 A3037 RMK A01 T00701125  RH  023%=      5-min Rain = 0
KBWS 011950Z 07011KT 07/M12 A3037 RMK A01 T00711123  RH  024%=      5-min Rain = 0
KBWS 011951Z 07010KT 07/M12 A3037 RMK A01 T00721123  RH  024%=      5-min Rain = 0
KBWS 011952Z 07009KT 07/M12 A3037 RMK A01 T00721124  RH  023%=      5-min Rain = 0
KBWS 011953Z 06008KT 07/M12 A3037 RMK A01 T00731122  RH  024%=      5-min Rain = 0
KBWS 011954Z 05007KT 07/M12 A3037 RMK A01 T00731120  RH  024%=      5-min Rain = 0
KBWS 011955Z 05009KT 07/M12 A3037 RMK A01 T00731124  RH  023%=      5-min Rain = 0
KBWS 011956Z 04006KT 07/M13 A3037 RMK A01 T00721126  RH  023%=      5-min Rain = 0
KBWS 011957Z 01007KT 07/M12 A3037 RMK A01 T00721124  RH  023%=      5-min Rain = 0
KBWS 011958Z 01005KT 07/M13 A3037 RMK A01 T00731126  RH  023%=      5-min Rain = 0
KBWS 011959Z 05006KT 07/M13 A3037 RMK A01 T00731125  RH  023%=      5-min Rain = 0
KBWS 012000Z 06008KT 07/M12 A3037 RMK A01 T00741120  RH  024%=      5-min Rain = 0
KBWS 012001Z 05006KT 07/M12 A3037 RMK A01 T00731124  RH  023%=      5-min Rain = 0
KBWS 012002Z 05007KT 07/M12 A3037 RMK A01 T00721124  RH  023%=      5-min Rain = 0
KBWS 012003Z 05007KT 07/M12 A3037 RMK A01 T00721123  RH  023%=      5-min Rain = 0
KBWS 012004Z 04009KT 07/M12 A3036 RMK A01 T00731120  RH  024%=      5-min Rain = 0
KBWS 012005Z 04008KT 08/M12 A3036 RMK A01 T00751120  RH  024%=      5-min Rain = 0
KBWS 012006Z 04010KT 08/M12 A3037 RMK A01 T00751121  RH  024%=      5-min Rain = 0
KBWS 012007Z 03009KT 08/M12 A3037 RMK A01 T00761119  RH  024%=      5-min Rain = 0
KBWS 012008Z 04008KT 08/M12 A3037 RMK A01 T00771119  RH  023%=      5-min Rain = 0
KBWS 012009Z 03006KT 08/M12 A3037 RMK A01 T00761123  RH  023%=      5-min Rain = 0
KBWS 012010Z 03007KT 08/M12 A3036 RMK A01 T00751123  RH  023%=      5-min Rain = 0
KBWS 012011Z 04007KT 08/M12 A3036 RMK A01 T00751120  RH  023%=      5-min Rain = 0
KBWS 012012Z 05008KT 08/M12 A3036 RMK A01 T00761119  RH  024%=      5-min Rain = 0
KBWS 012013Z 05006KT 08/M12 A3036 RMK A01 T00761121  RH  023%=      5-min Rain = 0
KBWS 012014Z 05010KT 08/M12 A3036 RMK A01 T00761120  RH  023%=      5-min Rain = 0
KBWS 012015Z 05008KT 08/M12 A3036 RMK A01 T00761121  RH  023%=      5-min Rain = 0
KBWS 012016Z 06007KT 08/M12 A3036 RMK A01 T00751122  RH  023%=      5-min Rain = 0
KBWS 012017Z 05006KT 08/M12 A3036 RMK A01 T00751121  RH  023%=      5-min Rain = 0
KBWS 012018Z 05005KT 08/M12 A3036 RMK A01 T00751120  RH  024%=      5-min Rain = 0
KBWS 012019Z 07007KT 08/M12 A3036 RMK A01 T00761118  RH  024%=      5-min Rain = 0
KBWS 012020Z 07007KT 08/M12 A3036 RMK A01 T00761119  RH  024%=      5-min Rain = 0
KBWS 012021Z 07008KT 08/M12 A3036 RMK A01 T00771116  RH  024%=      5-min Rain = 0
KBWS 012022Z 08005KT 08/M12 A3036 RMK A01 T00771122  RH  023%=      5-min Rain = 0
KBWS 012023Z 04006KT 08/M12 A3036 RMK A01 T00761120  RH  023%=      5-min Rain = 0
KBWS 012024Z 02006KT 08/M12 A3036 RMK A01 T00761122  RH  023%=      5-min Rain = 0
KBWS 012025Z 02003KT 08/M12 A3036 RMK A01 T00761123  RH  023%=      5-min Rain = 0
KBWS 012026Z 02005KT 08/M12 A3036 RMK A01 T00761121  RH  023%=      5-min Rain = 0
KBWS 012027Z 02008KT 08/M12 A3036 RMK A01 T00781120  RH  023%=      5-min Rain = 0
KBWS 012028Z 04006KT 08/M12 A3036 RMK A01 T00791122  RH  023%=      5-min Rain = 0
KBWS 012029Z 03004KT 08/M12 A3036 RMK A01 T00781121  RH  023%=      5-min Rain = 0
KBWS 012030Z 02007KT 08/M12 A3035 RMK A01 T00791121  RH  023%=      5-min Rain = 0
KBWS 012031Z 00006KT 08/M12 A3035 RMK A01 T00811118  RH  023%=      5-min Rain = 0
KBWS 012032Z 35004KT 08/M12 A3035 RMK A01 T00821121  RH  022%=      5-min Rain = 0
KBWS 012033Z 35005G10KT 08/M12 A3035 RMK A01 T00811122  RH  022%=      5-min Rain = 0
KBWS 012034Z 03007KT 08/M12 A3035 RMK A01 T00821118  RH  023%=      5-min Rain = 0
KBWS 012035Z 36003KT 08/M12 A3035 RMK A01 T00831120  RH  022%=      5-min Rain = 0
KBWS 012036Z 36004KT 08/M12 A3035 RMK A01 T00831116  RH  023%=      5-min Rain = 0
KBWS 012037Z 01005KT 09/M12 A3035 RMK A01 T00861117  RH  023%=      5-min Rain = 0
KBWS 012038Z 04001KT 09/M12 A3035 RMK A01 T00851120  RH  022%=      5-min Rain = 0
KBWS 012039Z 36001KT 09/M12 A3035 RMK A01 T00851117  RH  023%=      5-min Rain = 0
KBWS 012040Z 35002KT 09/M12 A3035 RMK A01 T00861115  RH  023%=      5-min Rain = 0
KBWS 012041Z 05003KT 09/M12 A3035 RMK A01 T00871117  RH  022%=      5-min Rain = 0
KBWS 012042Z 07004G9KT 09/M12 A3035 RMK A01 T00881118  RH  022%=      5-min Rain = 0
KBWS 012043Z 06006KT 09/M11 A3035 RMK A01 T00891114  RH  023%=      5-min Rain = 0
KBWS 012044Z 02006KT 09/M11 A3035 RMK A01 T00921113  RH  022%=      5-min Rain = 0
KBWS 012045Z 04005KT 09/M12 A3035 RMK A01 T00921118  RH  021%=      5-min Rain = 0
KBWS 012046Z 04005KT 09/M12 A3035 RMK A01 T00891120  RH  021%=      5-min Rain = 0
KBWS 012047Z 05005KT 09/M12 A3035 RMK A01 T00881119  RH  022%=      5-min Rain = 0
KBWS 012048Z 07005KT 09/M12 A3035 RMK A01 T00861119  RH  022%=      5-min Rain = 0
KBWS 012049Z 09006KT 09/M12 A3035 RMK A01 T00861115  RH  023%=      5-min Rain = 0
KBWS 012050Z 10005KT 09/M12 A3035 RMK A01 T00891115  RH  022%=      5-min Rain = 0
KBWS 012051Z 11005G10KT 09/M11 A3035 RMK A01 T00891114  RH  022%=      5-min Rain = 0
KBWS 012052Z 10009KT 09/M11 A3035 RMK A01 T00901113  RH  022%=      5-min Rain = 0
KBWS 012053Z 07009KT 09/M12 A3035 RMK A01 T00891117  RH  022%=      5-min Rain = 0
KBWS 012054Z 07006KT 09/M12 A3035 RMK A01 T00861119  RH  022%=      5-min Rain = 0
KBWS 012055Z 08007KT 09/M11 A3035 RMK A01 T00891113  RH  023%=      5-min Rain = 0
KBWS 012056Z 08008KT 09/M12 A3034 RMK A01 T00911117  RH  022%=      5-min Rain = 0
KBWS 012057Z 08010KT 09/M12 A3034 RMK A01 T00901118  RH  022%=      5-min Rain = 0
KBWS 012058Z 07007KT 09/M12 A3034 RMK A01 T00901116  RH  022%=      5-min Rain = 0
KBWS 012059Z 06011KT 09/M11 A3034 RMK A01 T00921113  RH  022%=      5-min Rain = 0
KBWS 012100Z 06011KT 09/M11 A3034 RMK A01 T00941114  RH  022%=      5-min Rain = 0
KBWS 012101Z 04010KT 09/M12 A3034 RMK A01 T00921120  RH  021%=      5-min Rain = 0
KBWS 012102Z 03010KT 09/M12 A3035 RMK A01 T00921117  RH  021%=      5-min Rain = 0
KBWS 012103Z 04009KT 10/M12 A3035 RMK A01 T00961117  RH  021%=      5-min Rain = 0
KBWS 012104Z 06008KT 09/M12 A3035 RMK A01 T00941118  RH  021%=      5-min Rain = 0
KBWS 012105Z 06008KT 09/M12 A3035 RMK A01 T00921116  RH  022%=      5-min Rain = 0
KBWS 012106Z 06010KT 09/M12 A3034 RMK A01 T00901119  RH  022%=      5-min Rain = 0
KBWS 012107Z 06009KT 09/M12 A3034 RMK A01 T00901116  RH  022%=      5-min Rain = 0
KBWS 012108Z 07008KT 09/M12 A3034 RMK A01 T00911118  RH  022%=      5-min Rain = 0
KBWS 012109Z 06007KT 09/M11 A3034 RMK A01 T00941114  RH  022%=      5-min Rain = 0
KBWS 012110Z 04008KT 10/M12 A3034 RMK A01 T00961115  RH  021%=      5-min Rain = 0
KBWS 012111Z 05006KT 09/M12 A3034 RMK A01 T00931123  RH  020%=      5-min Rain = 0
KBWS 012112Z 01006KT 09/M12 A3034 RMK A01 T00901120  RH  021%=      5-min Rain = 0
KBWS 012113Z 35004KT 09/M12 A3034 RMK A01 T00911122  RH  021%=      5-min Rain = 0
KBWS 012114Z 03006KT 09/M12 A3034 RMK A01 T00901122  RH  021%=      5-min Rain = 0
KBWS 012115Z 07007KT 09/M11 A3034 RMK A01 T00931112  RH  022%=      5-min Rain = 0
KBWS 012116Z 06009KT 09/M11 A3034 RMK A01 T00941114  RH  022%=      5-min Rain = 0
KBWS 012117Z 06009KT 09/M12 A3034 RMK A01 T00911118  RH  021%=      5-min Rain = 0
KBWS 012118Z 05010KT 09/M12 A3034 RMK A01 T00901117  RH  022%=      5-min Rain = 0
KBWS 012119Z 04008KT 09/M12 A3035 RMK A01 T00891123  RH  021%=      5-min Rain = 0
KBWS 012120Z 05006KT 09/M12 A3035 RMK A01 T00881122  RH  021%=      5-min Rain = 0
KBWS 012121Z 04005KT 09/M12 A3035 RMK A01 T00881121  RH  021%=      5-min Rain = 0
KBWS 012122Z 03004KT 09/M12 A3035 RMK A01 T00881121  RH  021%=      5-min Rain = 0
KBWS 012123Z 02006KT 09/M12 A3035 RMK A01 T00871124  RH  021%=      5-min Rain = 0
KBWS 012124Z 03006KT 09/M13 A3035 RMK A01 T00871126  RH  021%=      5-min Rain = 0
KBWS 012125Z 06003KT 09/M13 A3035 RMK A01 T00851127  RH  021%=      5-min Rain = 0
KBWS 012126Z 10004KT 09/M13 A3035 RMK A01 T00851127  RH  021%=      5-min Rain = 0
KBWS 012127Z 13004KT 09/M13 A3035 RMK A01 T00851125  RH  021%=      5-min Rain = 0
KBWS 012128Z 15009KT 09/M09 A3035 RMK A01 T00871089  RH  028%=      5-min Rain = 0
KBWS 012129Z 15009KT 08/M07 A3035 RMK A01 T00831068  RH  034%=      5-min Rain = 0
KBWS 012130Z 17010KT 08/M06 A3035 RMK A01 T00791064  RH  036%=      5-min Rain = 0
KBWS 012131Z 17009KT 08/M07 A3035 RMK A01 T00761065  RH  036%=      5-min Rain = 0
KBWS 012132Z 17007KT 07/M07 A3035 RMK A01 T00731066  RH  037%=      5-min Rain = 0
KBWS 012133Z 17010KT 07/M07 A3035 RMK A01 T00721065  RH  037%=      5-min Rain = 0
KBWS 012134Z 17011KT 07/M07 A3035 RMK A01 T00721066  RH  037%=      5-min Rain = 0
KBWS 012135Z 17011KT 07/M07 A3035 RMK A01 T00721066  RH  037%=      5-min Rain = 0
KBWS 012136Z 17010KT 07/M07 A3035 RMK A01 T00711067  RH  037%=      5-min Rain = 0
KBWS 012137Z 17008KT 07/M07 A3035 RMK A01 T00701067  RH  037%=      5-min Rain = 0
KBWS 012138Z 16008KT 07/M07 A3034 RMK A01 T00701067  RH  037%=      5-min Rain = 0
KBWS 012139Z 18008KT 07/M07 A3034 RMK A01 T00721067  RH  037%=      5-min Rain = 0
KBWS 012140Z 17008KT 07/M07 A3034 RMK A01 T00731068  RH  036%=      5-min Rain = 0
KBWS 012141Z 16009KT 07/M07 A3034 RMK A01 T00741070  RH  035%=      5-min Rain = 0
KBWS 012142Z 16009KT 07/M07 A3034 RMK A01 T00721072  RH  035%=      5-min Rain = 0
KBWS 012143Z 17009KT 07/M07 A3035 RMK A01 T00711072  RH  035%=      5-min Rain = 0
KBWS 012144Z 17009KT 07/M07 A3035 RMK A01 T00711073  RH  035%=      5-min Rain = 0
KBWS 012145Z 17010KT 07/M07 A3035 RMK A01 T00701072  RH  036%=      5-min Rain = 0
KBWS 012146Z 16012KT 07/M07 A3035 RMK A01 T00711071  RH  036%=      5-min Rain = 0
KBWS 012147Z 16013KT 07/M07 A3035 RMK A01 T00721068  RH  036%=      5-min Rain = 0
KBWS 012148Z 16013KT 07/M07 A3035 RMK A01 T00731068  RH  036%=      5-min Rain = 0
KBWS 012149Z 16012KT 07/M07 A3035 RMK A01 T00721071  RH  035%=      5-min Rain = 0
KBWS 012150Z 16011KT 07/M07 A3035 RMK A01 T00701072  RH  036%=      5-min Rain = 0
KBWS 012151Z 17011KT 07/M07 A3035 RMK A01 T00701071  RH  036%=      5-min Rain = 0
KBWS 012152Z 16009KT 07/M07 A3035 RMK A01 T00711072  RH  035%=      5-min Rain = 0
KBWS 012153Z 17009KT 07/M07 A3035 RMK A01 T00711071  RH  036%=      5-min Rain = 0
KBWS 012154Z 16010KT 07/M07 A3035 RMK A01 T00721071  RH  035%=      5-min Rain = 0
KBWS 012155Z 17008KT 07/M07 A3035 RMK A01 T00731071  RH  035%=      5-min Rain = 0
KBWS 012156Z 16008KT 08/M07 A3035 RMK A01 T00751071  RH  035%=      5-min Rain = 0
KBWS 012157Z 15010KT 08/M07 A3035 RMK A01 T00751071  RH  035%=      5-min Rain = 0
KBWS 012158Z 17010KT 07/M07 A3035 RMK A01 T00741071  RH  035%=      5-min Rain = 0
KBWS 012159Z 15010KT 07/M07 A3035 RMK A01 T00731072  RH  035%=      5-min Rain = 0
KBWS 012200Z 15010KT 07/M07 A3035 RMK A01 T00721072  RH  035%=      5-min Rain = 0
KBWS 012201Z 17011KT 07/M07 A3035 RMK A01 T00711073  RH  035%=      5-min Rain = 0
KBWS 012202Z 16010KT 07/M07 A3035 RMK A01 T00711073  RH  035%=      5-min Rain = 0
KBWS 012203Z 15011KT 07/M07 A3035 RMK A01 T00711072  RH  035%=      5-min Rain = 0
KBWS 012204Z 15010KT 07/M07 A3035 RMK A01 T00701073  RH  035%=      5-min Rain = 0
KBWS 012205Z 16009KT 07/M07 A3035 RMK A01 T00701073  RH  035%=      5-min Rain = 0
KBWS 012206Z 16009KT 07/M07 A3035 RMK A01 T00691074  RH  035%=      5-min Rain = 0
KBWS 012207Z 16010KT 07/M07 A3035 RMK A01 T00681074  RH  035%=      5-min Rain = 0
KBWS 012208Z 17010KT 07/M07 A3035 RMK A01 T00681074  RH  036%=      5-min Rain = 0
KBWS 012209Z 17008KT 07/M07 A3035 RMK A01 T00681073  RH  036%=      5-min Rain = 0
KBWS 012210Z 17011KT 07/M07 A3035 RMK A01 T00671070  RH  037%=      5-min Rain = 0
KBWS 012211Z 17009KT 07/M07 A3035 RMK A01 T00671069  RH  037%=      5-min Rain = 0
KBWS 012212Z 17009KT 07/M07 A3035 RMK A01 T00671069  RH  037%=      5-min Rain = 0
KBWS 012213Z 18008KT 07/M07 A3035 RMK A01 T00661069  RH  037%=      5-min Rain = 0
KBWS 012214Z 18009KT 07/M07 A3035 RMK A01 T00661069  RH  037%=      5-min Rain = 0
KBWS 012215Z 18008KT 07/M07 A3035 RMK A01 T00661069  RH  037%=      5-min Rain = 0
KBWS 012216Z 17009KT 07/M07 A3035 RMK A01 T00651071  RH  037%=      5-min Rain = 0
KBWS 012217Z 17007KT 06/M07 A3035 RMK A01 T00641072  RH  037%=      5-min Rain = 0
KBWS 012218Z 16008KT 06/M07 A3035 RMK A01 T00641071  RH  037%=      5-min Rain = 0
KBWS 012219Z 16008KT 06/M07 A3035 RMK A01 T00641072  RH  037%=      5-min Rain = 0
KBWS 012220Z 16009KT 06/M07 A3035 RMK A01 T00641073  RH  037%=      5-min Rain = 0
KBWS 012221Z 16009KT 06/M07 A3035 RMK A01 T00641072  RH  037%=      5-min Rain = 0
KBWS 012222Z 16008KT 06/M07 A3035 RMK A01 T00641072  RH  037%=      5-min Rain = 0
KBWS 012223Z 15007KT 06/M07 A3035 RMK A01 T00641072  RH  037%=      5-min Rain = 0
KBWS 012224Z 15005KT 06/M07 A3035 RMK A01 T00631073  RH  037%=      5-min Rain = 0
KBWS 012225Z 18007KT 06/M07 A3035 RMK A01 T00641070  RH  038%=      5-min Rain = 0
KBWS 012226Z 18007KT 07/M07 A3035 RMK A01 T00651072  RH  037%=      5-min Rain = 0
KBWS 012227Z 18008KT 07/M07 A3035 RMK A01 T00651071  RH  037%=      5-min Rain = 0
KBWS 012228Z 16008KT 07/M07 A3035 RMK A01 T00651071  RH  037%=      5-min Rain = 0
KBWS 012229Z 18006KT 06/M07 A3035 RMK A01 T00641073  RH  037%=      5-min Rain = 0
KBWS 012230Z 19008KT 06/M07 A3035 RMK A01 T00641070  RH  038%=      5-min Rain = 0
KBWS 012231Z 19007KT 07/M07 A3035 RMK A01 T00651069  RH  038%=      5-min Rain = 0
KBWS 012232Z 18009KT 07/M07 A3035 RMK A01 T00651067  RH  038%=      5-min Rain = 0
KBWS 012233Z 18009KT 07/M07 A3035 RMK A01 T00651071  RH  037%=      5-min Rain = 0
KBWS 012234Z 16008KT 06/M07 A3035 RMK A01 T00641072  RH  037%=      5-min Rain = 0
KBWS 012235Z 16008KT 06/M07 A3035 RMK A01 T00641072  RH  037%=      5-min Rain = 0
KBWS 012236Z 17008KT 06/M07 A3035 RMK A01 T00631072  RH  037%=      5-min Rain = 0
KBWS 012237Z 17009KT 06/M07 A3035 RMK A01 T00631072  RH  037%=      5-min Rain = 0
KBWS 012238Z 17008KT 06/M07 A3035 RMK A01 T00621073  RH  037%=      5-min Rain = 0
KBWS 012239Z 18007KT 06/M07 A3035 RMK A01 T00621073  RH  037%=      5-min Rain = 0
KBWS 012240Z 17008KT 06/M07 A3035 RMK A01 T00621072  RH  037%=      5-min Rain = 0
KBWS 012241Z 17007KT 06/M07 A3035 RMK A01 T00631073  RH  037%=      5-min Rain = 0
KBWS 012242Z 17007KT 06/M07 A3035 RMK A01 T00631073  RH  037%=      5-min Rain = 0
KBWS 012243Z 17006KT 06/M07 A3035 RMK A01 T00641072  RH  037%=      5-min Rain = 0
KBWS 012244Z 17007KT 07/M07 A3035 RMK A01 T00651073  RH  037%=      5-min Rain = 0
KBWS 012245Z 17009KT 07/M07 A3035 RMK A01 T00651071  RH  037%=      5-min Rain = 0
KBWS 012246Z 18010KT 07/M07 A3035 RMK A01 T00651068  RH  038%=      5-min Rain = 0
KBWS 012247Z 18009KT 07/M07 A3035 RMK A01 T00651069  RH  038%=      5-min Rain = 0
KBWS 012248Z 18011KT 06/M07 A3035 RMK A01 T00641069  RH  038%=      5-min Rain = 0
KBWS 012249Z 18009KT 06/M07 A3035 RMK A01 T00641068  RH  038%=      5-min Rain = 0
KBWS 012250Z 19007KT 06/M07 A3035 RMK A01 T00631068  RH  038%=      5-min Rain = 0
KBWS 012251Z 19009KT 06/M07 A3035 RMK A01 T00631067  RH  039%=      5-min Rain = 0
KBWS 012252Z 19009KT 06/M07 A3035 RMK A01 T00631067  RH  039%=      5-min Rain = 0
KBWS 012253Z 17009KT 07/M07 A3035 RMK A01 T00661066  RH  038%=      5-min Rain = 0
KBWS 012254Z 17007KT 07/M07 A3035 RMK A01 T00661071  RH  037%=      5-min Rain = 0
KBWS 012255Z 19007KT 06/M07 A3035 RMK A01 T00641070  RH  038%=      5-min Rain = 0
KBWS 012256Z 19008KT 07/M07 A3035 RMK A01 T00651067  RH  038%=      5-min Rain = 0
KBWS 012257Z 19009KT 07/M07 A3035 RMK A01 T00661067  RH  038%=      5-min Rain = 0
KBWS 012258Z 19008KT 07/M07 A3035 RMK A01 T00651067  RH  038%=      5-min Rain = 0
KBWS 012259Z 19009KT 07/M07 A3035 RMK A01 T00651066  RH  038%=      5-min Rain = 0
KBWS 012300Z 20009KT 07/M07 A3035 RMK A01 T00651069  RH  038%=      5-min Rain = 0
KBWS 012301Z 19008KT 06/M07 A3035 RMK A01 T00641070  RH  038%=      5-min Rain = 0
KBWS 012302Z 19009KT 06/M07 A3035 RMK A01 T00631068  RH  038%=      5-min Rain = 0
KBWS 012303Z 20009KT 06/M07 A3035 RMK A01 T00631068  RH  039%=      5-min Rain = 0
KBWS 012304Z 19008KT 06/M07 A3035 RMK A01 T00641066  RH  039%=      5-min Rain = 0
KBWS 012305Z 18011KT 07/M06 A3035 RMK A01 T00651063  RH  040%=      5-min Rain = 0
KBWS 012306Z 18011KT 07/M06 A3035 RMK A01 T00651062  RH  040%=      5-min Rain = 0
KBWS 012307Z 19009KT 06/M06 A3035 RMK A01 T00641063  RH  040%=      5-min Rain = 0
KBWS 012308Z 19008KT 06/M07 A3035 RMK A01 T00631065  RH  040%=      5-min Rain = 0
KBWS 012309Z 20007KT 06/M06 A3035 RMK A01 T00621064  RH  040%=      5-min Rain = 0
KBWS 012310Z 20008KT 06/M06 A3035 RMK A01 T00631063  RH  040%=      5-min Rain = 0
KBWS 012311Z 17009KT 06/M06 A3035 RMK A01 T00641063  RH  040%=      5-min Rain = 0
KBWS 012312Z 17009KT 07/M06 A3035 RMK A01 T00651064  RH  039%=      5-min Rain = 0
KBWS 012313Z 17009KT 07/M07 A3035 RMK A01 T00651065  RH  039%=      5-min Rain = 0
KBWS 012314Z 17009KT 07/M07 A3035 RMK A01 T00651066  RH  039%=      5-min Rain = 0
KBWS 012315Z 18010KT 07/M07 A3035 RMK A01 T00651066  RH  039%=      5-min Rain = 0
KBWS 012316Z 17010KT 06/M06 A3035 RMK A01 T00631064  RH  040%=      5-min Rain = 0
KBWS 012317Z 19010KT 06/M06 A3035 RMK A01 T00631063  RH  040%=      5-min Rain = 0
KBWS 012318Z 18010KT 06/M06 A3035 RMK A01 T00631063  RH  040%=      5-min Rain = 0
KBWS 012319Z 18009KT 06/M06 A3035 RMK A01 T00631064  RH  040%=      5-min Rain = 0
KBWS 012320Z 18008KT 06/M06 A3035 RMK A01 T00621064  RH  040%=      5-min Rain = 0
KBWS 012321Z 19008KT 06/M07 A3035 RMK A01 T00621065  RH  040%=      5-min Rain = 0
KBWS 012322Z 19009KT 06/M06 A3035 RMK A01 T00621064  RH  040%=      5-min Rain = 0
KBWS 012323Z 19008KT 06/M06 A3035 RMK A01 T00641064  RH  040%=      5-min Rain = 0
KBWS 012324Z 18008KT 06/M07 A3035 RMK A01 T00641066  RH  039%=      5-min Rain = 0
KBWS 012325Z 18010KT 06/M07 A3035 RMK A01 T00641065  RH  039%=      5-min Rain = 0
KBWS 012326Z 18010KT 06/M07 A3035 RMK A01 T00641066  RH  039%=      5-min Rain = 0
KBWS 012327Z 19008KT 06/M07 A3035 RMK A01 T00631067  RH  039%=      5-min Rain = 0
KBWS 012328Z 18010KT 06/M07 A3035 RMK A01 T00631066  RH  039%=      5-min Rain = 0
KBWS 012329Z 17008KT 06/M07 A3035 RMK A01 T00631067  RH  039%=      5-min Rain = 0
KBWS 012330Z 19008KT 06/M07 A3035 RMK A01 T00631068  RH  039%=      5-min Rain = 0
KBWS 012331Z 19008KT 06/M07 A3035 RMK A01 T00631068  RH  038%=      5-min Rain = 0
KBWS 012332Z 18007KT 06/M07 A3035 RMK A01 T00631068  RH  038%=      5-min Rain = 0
KBWS 012333Z 17006KT 06/M07 A3035 RMK A01 T00631067  RH  039%=      5-min Rain = 0
KBWS 012334Z 16007KT 06/M07 A3035 RMK A01 T00631068  RH  039%=      5-min Rain = 0
KBWS 012335Z 19008KT 06/M07 A3035 RMK A01 T00631066  RH  039%=      5-min Rain = 0
KBWS 012336Z 18008KT 07/M07 A3035 RMK A01 T00651067  RH  038%=      5-min Rain = 0
KBWS 012337Z 18007KT 06/M07 A3035 RMK A01 T00641069  RH  038%=      5-min Rain = 0
KBWS 012338Z 19009KT 06/M07 A3035 RMK A01 T00631068  RH  038%=      5-min Rain = 0
KBWS 012339Z 20006KT 06/M07 A3035 RMK A01 T00631069  RH  038%=      5-min Rain = 0
KBWS 012340Z 20007KT 06/M07 A3035 RMK A01 T00631069  RH  038%=      5-min Rain = 0
KBWS 012341Z 19007KT 06/M07 A3035 RMK A01 T00641070  RH  038%=      5-min Rain = 0
KBWS 012342Z 17008KT 06/M07 A3035 RMK A01 T00641070  RH  037%=      5-min Rain = 0
KBWS 012343Z 16008KT 07/M07 A3035 RMK A01 T00651073  RH  037%=      5-min Rain = 0
KBWS 012344Z 15005KT 06/M07 A3035 RMK A01 T00641073  RH  037%=      5-min Rain = 0
KBWS 012345Z 17006KT 06/M07 A3035 RMK A01 T00631073  RH  037%=      5-min Rain = 0
KBWS 012346Z 19007KT 06/M07 A3035 RMK A01 T00631069  RH  038%=      5-min Rain = 0
KBWS 012347Z 19008KT 06/M06 A3035 RMK A01 T00641062  RH  040%=      5-min Rain = 0
KBWS 012348Z 19008KT 07/M06 A3035 RMK A01 T00651061  RH  040%=      5-min Rain = 0
KBWS 012349Z 19010KT 07/M06 A3035 RMK A01 T00661061  RH  040%=      5-min Rain = 0
KBWS 012350Z 19010KT 07/M06 A3035 RMK A01 T00651062  RH  040%=      5-min Rain = 0
KBWS 012351Z 20009KT 07/M06 A3035 RMK A01 T00651061  RH  040%=      5-min Rain = 0
KBWS 012352Z 21009KT 06/M06 A3035 RMK A01 T00641063  RH  040%=      5-min Rain = 0
KBWS 012353Z 20009KT 06/M06 A3035 RMK A01 T00631063  RH  040%=      5-min Rain = 0
KBWS 012354Z 20011KT 06/M06 A3035 RMK A01 T00621063  RH  040%=      5-min Rain = 0
KBWS 012355Z 19009KT 06/M06 A3035 RMK A01 T00611064  RH  040%=      5-min Rain = 0
KBWS 012356Z 19009KT 06/M06 A3035 RMK A01 T00591062  RH  041%=      5-min Rain = 0
KBWS 012357Z 20009KT 06/M06 A3035 RMK A01 T00581061  RH  042%=      5-min Rain = 0
KBWS 012358Z 20010KT 06/M06 A3035 RMK A01 T00581060  RH  042%=      5-min Rain = 0
KBWS 012359Z 19010KT 06/M06 A3035 RMK A01 T00581060  RH  042%=      5-min Rain = 0
KBWS 020000Z 19010KT 06/M06 A3035 RMK A01 T00581061  RH  042%=      5-min Rain = 0
KBWS 020001Z 20009KT 06/M06 A3035 RMK A01 T00581062  RH  042%=      5-min Rain = 0
KBWS 020002Z 21010KT 06/M06 A3035 RMK A01 T00581063  RH  041%=      5-min Rain = 0
KBWS 020003Z 20010KT 06/M06 A3035 RMK A01 T00581063  RH  041%=      5-min Rain = 0
KBWS 020004Z 20009KT 06/M06 A3035 RMK A01 T00581062  RH  042%=      5-min Rain = 0
KBWS 020005Z 20010KT 06/M06 A3035 RMK A01 T00581062  RH  042%=      5-min Rain = 0
KBWS 020006Z 20012KT 06/M06 A3035 RMK A01 T00581061  RH  042%=      5-min Rain = 0
KBWS 020007Z 21011KT 06/M06 A3035 RMK A01 T00581060  RH  042%=      5-min Rain = 0
KBWS 020008Z 20011KT 06/M06 A3035 RMK A01 T00571059  RH  043%=      5-min Rain = 0
KBWS 020009Z 20010KT 06/M06 A3035 RMK A01 T00571058  RH  044%=      5-min Rain = 0
KBWS 020010Z 21010KT 06/M06 A3035 RMK A01 T00561058  RH  044%=      5-min Rain = 0
KBWS 020011Z 21009KT 06/M06 A3035 RMK A01 T00561058  RH  044%=      5-min Rain = 0
KBWS 020012Z 20009KT 06/M06 A3035 RMK A01 T00561058  RH  044%=      5-min Rain = 0
KBWS 020013Z 21009KT 06/M06 A3035 RMK A01 T00561060  RH  043%=      5-min Rain = 0
KBWS 020014Z 21009KT 06/M06 A3035 RMK A01 T00561062  RH  042%=      5-min Rain = 0
KBWS 020015Z 21009KT 06/M06 A3036 RMK A01 T00551062  RH  042%=      5-min Rain = 0
KBWS 020016Z 21009KT 06/M06 A3036 RMK A01 T00551061  RH  043%=      5-min Rain = 0
KBWS 020017Z 21009KT 06/M06 A3036 RMK A01 T00551062  RH  043%=      5-min Rain = 0
KBWS 020018Z 21009KT 05/M06 A3036 RMK A01 T00541063  RH  043%=      5-min Rain = 0
KBWS 020019Z 20009KT 05/M06 A3036 RMK A01 T00541063  RH  043%=      5-min Rain = 0
KBWS 020020Z 21009KT 05/M06 A3036 RMK A01 T00541063  RH  043%=      5-min Rain = 0
KBWS 020021Z 22010KT 05/M06 A3036 RMK A01 T00541059  RH  044%=      5-min Rain = 0
KBWS 020022Z 22009KT 05/M06 A3036 RMK A01 T00531058  RH  045%=      5-min Rain = 0
KBWS 020023Z 21009KT 05/M06 A3036 RMK A01 T00531058  RH  045%=      5-min Rain = 0
KBWS 020024Z 21008KT 05/M06 A3036 RMK A01 T00521060  RH  044%=      5-min Rain = 0
KBWS 020025Z 21009KT 05/M06 A3036 RMK A01 T00521061  RH  044%=      5-min Rain = 0
KBWS 020026Z 20009KT 05/M06 A3036 RMK A01 T00521063  RH  043%=      5-min Rain = 0
KBWS 020027Z 20009KT 05/M06 A3036 RMK A01 T00521062  RH  044%=      5-min Rain = 0
KBWS 020028Z 21008KT 05/M06 A3036 RMK A01 T00521060  RH  044%=      5-min Rain = 0
KBWS 020029Z 22010KT 05/M06 A3036 RMK A01 T00511059  RH  045%=      5-min Rain = 0
KBWS 020030Z 22011KT 05/M06 A3036 RMK A01 T00511059  RH  045%=      5-min Rain = 0
KBWS 020031Z 21009KT 05/M06 A3036 RMK A01 T00511059  RH  045%=      5-min Rain = 0
KBWS 020032Z 21008KT 05/M06 A3036 RMK A01 T00501060  RH  045%=      5-min Rain = 0
KBWS 020033Z 22008KT 05/M06 A3036 RMK A01 T00491060  RH  045%=      5-min Rain = 0
KBWS 020034Z 22009KT 05/M06 A3036 RMK A01 T00491060  RH  045%=      5-min Rain = 0
KBWS 020035Z 22008KT 05/M06 A3036 RMK A01 T00481059  RH  046%=      5-min Rain = 0
KBWS 020036Z 22008KT 05/M06 A3036 RMK A01 T00481059  RH  046%=      5-min Rain = 0
KBWS 020037Z 22010KT 05/M06 A3036 RMK A01 T00481058  RH  046%=      5-min Rain = 0
KBWS 020038Z 22010KT 05/M06 A3036 RMK A01 T00481057  RH  047%=      5-min Rain = 0
KBWS 020039Z 22009KT 05/M06 A3036 RMK A01 T00481056  RH  047%=      5-min Rain = 0
KBWS 020040Z 23009KT 05/M06 A3036 RMK A01 T00471056  RH  047%=      5-min Rain = 0
KBWS 020041Z 23008KT 05/M06 A3036 RMK A01 T00471055  RH  048%=      5-min Rain = 0
KBWS 020042Z 23008KT 05/M05 A3036 RMK A01 T00461054  RH  048%=      5-min Rain = 0
KBWS 020043Z 23008KT 05/M05 A3036 RMK A01 T00451054  RH  049%=      5-min Rain = 0
KBWS 020044Z 23008KT 04/M05 A3036 RMK A01 T00441053  RH  049%=      5-min Rain = 0
KBWS 020045Z 23008KT 04/M05 A3036 RMK A01 T00441053  RH  049%=      5-min Rain = 0
KBWS 020046Z 23009KT 04/M05 A3036 RMK A01 T00431052  RH  050%=      5-min Rain = 0
KBWS 020047Z 23008KT 04/M05 A3036 RMK A01 T00431051  RH  051%=      5-min Rain = 0
KBWS 020048Z 23008KT 04/M05 A3036 RMK A01 T00421051  RH  051%=      5-min Rain = 0
KBWS 020049Z 23008KT 04/M05 A3036 RMK A01 T00421050  RH  051%=      5-min Rain = 0
KBWS 020050Z 23008KT 04/M05 A3036 RMK A01 T00411050  RH  052%=      5-min Rain = 0
KBWS 020051Z 23009KT 04/M05 A3036 RMK A01 T00401050  RH  052%=      5-min Rain = 0
KBWS 020052Z 23007KT 04/M05 A3036 RMK A01 T00391050  RH  052%=      5-min Rain = 0
KBWS 020053Z 23008KT 04/M05 A3036 RMK A01 T00381050  RH  052%=      5-min Rain = 0
KBWS 020054Z 23007KT 04/M05 A3036 RMK A01 T00381050  RH  053%=      5-min Rain = 0
KBWS 020055Z 23008KT 04/M05 A3036 RMK A01 T00371050  RH  053%=      5-min Rain = 0
KBWS 020056Z 23008KT 04/M05 A3036 RMK A01 T00371050  RH  053%=      5-min Rain = 0
KBWS 020057Z 23008KT 04/M05 A3036 RMK A01 T00371050  RH  053%=      5-min Rain = 0
KBWS 020058Z 23007KT 04/M05 A3036 RMK A01 T00361050  RH  053%=      5-min Rain = 0
KBWS 020059Z 23007KT 04/M05 A3036 RMK A01 T00361051  RH  053%=      5-min Rain = 0
KBWS 020100Z 23008KT 04/M05 A3036 RMK A01 T00351051  RH  053%=      5-min Rain = 0
KBWS 020101Z 23007KT 04/M05 A3036 RMK A01 T00351051  RH  053%=      5-min Rain = 0
KBWS 020102Z 23007KT 03/M05 A3036 RMK A01 T00341051  RH  054%=      5-min Rain = 0
KBWS 020103Z 23008KT 03/M05 A3036 RMK A01 T00341051  RH  054%=      5-min Rain = 0
KBWS 020104Z 23008KT 03/M05 A3036 RMK A01 T00341051  RH  054%=      5-min Rain = 0
KBWS 020105Z 23008KT 03/M05 A3036 RMK A01 T00341051  RH  054%=      5-min Rain = 0
KBWS 020106Z 23007KT 03/M05 A3036 RMK A01 T00331051  RH  054%=      5-min Rain = 0
KBWS 020107Z 23007KT 03/M05 A3036 RMK A01 T00331052  RH  054%=      5-min Rain = 0
KBWS 020108Z 23007KT 03/M05 A3036 RMK A01 T00321051  RH  054%=      5-min Rain = 0
KBWS 020109Z 23007KT 03/M05 A3036 RMK A01 T00321051  RH  054%=      5-min Rain = 0
KBWS 020110Z 24007KT 03/M05 A3036 RMK A01 T00321051  RH  054%=      5-min Rain = 0
KBWS 020111Z 23007KT 03/M05 A3036 RMK A01 T00321051  RH  055%=      5-min Rain = 0
KBWS 020112Z 24008KT 03/M05 A3036 RMK A01 T00311051  RH  055%=      5-min Rain = 0
KBWS 020113Z 23008KT 03/M05 A3036 RMK A01 T00311051  RH  055%=      5-min Rain = 0
KBWS 020114Z 23007KT 03/M05 A3036 RMK A01 T00311051  RH  055%=      5-min Rain = 0
KBWS 020115Z 23007KT 03/M05 A3036 RMK A01 T00311052  RH  055%=      5-min Rain = 0
KBWS 020116Z 23007KT 03/M05 A3036 RMK A01 T00301052  RH  055%=      5-min Rain = 0
KBWS 020117Z 23007KT 03/M05 A3036 RMK A01 T00291052  RH  055%=      5-min Rain = 0
KBWS 020118Z 23007KT 03/M05 A3036 RMK A01 T00291052  RH  055%=      5-min Rain = 0
KBWS 020119Z 23007KT 03/M05 A3036 RMK A01 T00291052  RH  055%=      5-min Rain = 0
KBWS 020120Z 23006KT 03/M05 A3036 RMK A01 T00281053  RH  055%=      5-min Rain = 0
KBWS 020121Z 23006KT 03/M05 A3036 RMK A01 T00281053  RH  055%=      5-min Rain = 0
KBWS 020122Z 23007KT 03/M05 A3036 RMK A01 T00271053  RH  056%=      5-min Rain = 0
KBWS 020123Z 23007KT 03/M05 A3036 RMK A01 T00271053  RH  056%=      5-min Rain = 0
KBWS 020124Z 23007KT 03/M05 A3036 RMK A01 T00261053  RH  056%=      5-min Rain = 0
KBWS 020125Z 23006KT 03/M05 A3036 RMK A01 T00261054  RH  056%=      5-min Rain = 0
KBWS 020126Z 23007KT 03/M05 A3036 RMK A01 T00251054  RH  056%=      5-min Rain = 0
KBWS 020127Z 23007KT 03/M05 A3036 RMK A01 T00251054  RH  056%=      5-min Rain = 0
KBWS 020128Z 23006KT 02/M05 A3036 RMK A01 T00241054  RH  056%=      5-min Rain = 0
KBWS 020129Z 23006KT 02/M05 A3036 RMK A01 T00241053  RH  057%=      5-min Rain = 0
KBWS 020130Z 23006KT 02/M05 A3036 RMK A01 T00241054  RH  057%=      5-min Rain = 0
KBWS 020131Z 23006KT 02/M05 A3036 RMK A01 T00241054  RH  056%=      5-min Rain = 0
KBWS 020132Z 23006KT 02/M05 A3036 RMK A01 T00231054  RH  056%=      5-min Rain = 0
KBWS 020133Z 23007KT 02/M05 A3036 RMK A01 T00231054  RH  057%=      5-min Rain = 0
KBWS 020134Z 23006KT 02/M06 A3036 RMK A01 T00221055  RH  057%=      5-min Rain = 0
KBWS 020135Z 23006KT 02/M06 A3036 RMK A01 T00221055  RH  057%=      5-min Rain = 0
KBWS 020136Z 23006KT 02/M06 A3036 RMK A01 T00221055  RH  057%=      5-min Rain = 0
KBWS 020137Z 23006KT 02/M06 A3036 RMK A01 T00221055  RH  057%=      5-min Rain = 0
KBWS 020138Z 23006KT 02/M05 A3036 RMK A01 T00221054  RH  057%=      5-min Rain = 0
KBWS 020139Z 23006KT 02/M05 A3036 RMK A01 T00221054  RH  057%=      5-min Rain = 0
KBWS 020140Z 23006KT 02/M05 A3036 RMK A01 T00231054  RH  057%=      5-min Rain = 0
KBWS 020141Z 23007KT 02/M05 A3036 RMK A01 T00231054  RH  057%=      5-min Rain = 0
KBWS 020142Z 23007KT 02/M05 A3036 RMK A01 T00241054  RH  057%=      5-min Rain = 0
KBWS 020143Z 23007KT 02/M05 A3036 RMK A01 T00241054  RH  057%=      5-min Rain = 0
KBWS 020144Z 23007KT 02/M05 A3036 RMK A01 T00231054  RH  056%=      5-min Rain = 0
KBWS 020145Z 23007KT 02/M06 A3036 RMK A01 T00231055  RH  056%=      5-min Rain = 0
KBWS 020146Z 23007KT 02/M06 A3036 RMK A01 T00221055  RH  056%=      5-min Rain = 0
KBWS 020147Z 23007KT 02/M06 A3036 RMK A01 T00221056  RH  057%=      5-min Rain = 0
KBWS 020148Z 23006KT 02/M06 A3036 RMK A01 T00211056  RH  057%=      5-min Rain = 0
KBWS 020149Z 23006KT 02/M06 A3036 RMK A01 T00211056  RH  057%=      5-min Rain = 0
KBWS 020150Z 23006KT 02/M06 A3036 RMK A01 T00211056  RH  057%=      5-min Rain = 0
KBWS 020151Z 23006KT 02/M06 A3036 RMK A01 T00211055  RH  057%=      5-min Rain = 0
KBWS 020152Z 23006KT 02/M06 A3036 RMK A01 T00211056  RH  057%=      5-min Rain = 0
KBWS 020153Z 23006KT 02/M06 A3036 RMK A01 T00211056  RH  057%=      5-min Rain = 0
KBWS 020154Z 23007KT 02/M06 A3036 RMK A01 T00201056  RH  057%=      5-min Rain = 0
KBWS 020155Z 23006KT 02/M06 A3036 RMK A01 T00201056  RH  057%=      5-min Rain = 0
KBWS 020156Z 23007KT 02/M06 A3036 RMK A01 T00201056  RH  057%=      5-min Rain = 0
KBWS 020157Z 23007KT 02/M06 A3036 RMK A01 T00201056  RH  057%=      5-min Rain = 0
KBWS 020158Z 23007KT 02/M06 A3036 RMK A01 T00201055  RH  057%=      5-min Rain = 0
KBWS 020159Z 23007KT 02/M06 A3036 RMK A01 T00201056  RH  057%=      5-min Rain = 0
KBWS 020200Z 23007KT 02/M06 A3036 RMK A01 T00201056  RH  057%=      5-min Rain = 0
KBWS 020201Z 23006KT 02/M06 A3036 RMK A01 T00191056  RH  057%=      5-min Rain = 0
KBWS 020202Z 23007KT 02/M06 A3036 RMK A01 T00191056  RH  057%=      5-min Rain = 0
KBWS 020203Z 23007KT 02/M06 A3036 RMK A01 T00181056  RH  058%=      5-min Rain = 0
KBWS 020204Z 23006KT 02/M06 A3036 RMK A01 T00181056  RH  058%=      5-min Rain = 0
KBWS 020205Z 23007KT 02/M06 A3036 RMK A01 T00181056  RH  058%=      5-min Rain = 0
KBWS 020206Z 23007KT 02/M06 A3036 RMK A01 T00191056  RH  058%=      5-min Rain = 0
KBWS 020207Z 23007KT 02/M06 A3036 RMK A01 T00191056  RH  058%=      5-min Rain = 0
KBWS 020208Z 23007KT 02/M06 A3036 RMK A01 T00191056  RH  058%=      5-min Rain = 0
KBWS 020209Z 23007KT 02/M06 A3036 RMK A01 T00191056  RH  058%=      5-min Rain = 0
KBWS 020210Z 23007KT 02/M06 A3036 RMK A01 T00191057  RH  057%=      5-min Rain = 0
KBWS 020211Z 23007KT 02/M06 A3036 RMK A01 T00181056  RH  058%=      5-min Rain = 0
KBWS 020212Z 23007KT 02/M06 A3036 RMK A01 T00181056  RH  058%=      5-min Rain = 0
KBWS 020213Z 23007KT 02/M06 A3036 RMK A01 T00181057  RH  058%=      5-min Rain = 0
KBWS 020214Z 23007KT 02/M06 A3036 RMK A01 T00181057  RH  058%=      5-min Rain = 0
KBWS 020215Z 23007KT 02/M06 A3036 RMK A01 T00181057  RH  058%=      5-min Rain = 0
KBWS 020216Z 23006KT 02/M06 A3036 RMK A01 T00181057  RH  057%=      5-min Rain = 0
KBWS 020217Z 23006KT 02/M06 A3036 RMK A01 T00181057  RH  057%=      5-min Rain = 0
KBWS 020218Z 23007KT 02/M06 A3036 RMK A01 T00181057  RH  057%=      5-min Rain = 0
KBWS 020219Z 23007KT 02/M06 A3036 RMK A01 T00181057  RH  058%=      5-min Rain = 0
KBWS 020220Z 23006KT 02/M06 A3036 RMK A01 T00181057  RH  057%=      5-min Rain = 0
KBWS 020221Z 23006KT 02/M06 A3036 RMK A01 T00171058  RH  058%=      5-min Rain = 0
KBWS 020222Z 23006KT 02/M06 A3036 RMK A01 T00171058  RH  058%=      5-min Rain = 0
KBWS 020223Z 23006KT 02/M06 A3036 RMK A01 T00171058  RH  058%=      5-min Rain = 0
KBWS 020224Z 23006KT 02/M06 A3036 RMK A01 T00161058  RH  058%=      5-min Rain = 0
KBWS 020225Z 23006KT 02/M06 A3036 RMK A01 T00151059  RH  058%=      5-min Rain = 0
KBWS 020226Z 23006KT 02/M06 A3036 RMK A01 T00151058  RH  058%=      5-min Rain = 0
KBWS 020227Z 23006KT 02/M06 A3036 RMK A01 T00151058  RH  058%=      5-min Rain = 0
KBWS 020228Z 23006KT 02/M06 A3036 RMK A01 T00151058  RH  058%=      5-min Rain = 0
KBWS 020229Z 23006KT 02/M06 A3036 RMK A01 T00151059  RH  058%=      5-min Rain = 0
KBWS 020230Z 23006KT 02/M06 A3036 RMK A01 T00151058  RH  058%=      5-min Rain = 0
KBWS 020231Z 23006KT 01/M06 A3036 RMK A01 T00141059  RH  058%=      5-min Rain = 0
KBWS 020232Z 23006KT 01/M06 A3036 RMK A01 T00141059  RH  058%=      5-min Rain = 0
KBWS 020233Z 23006KT 01/M06 A3036 RMK A01 T00131059  RH  058%=      5-min Rain = 0
KBWS 020234Z 23006KT 01/M06 A3036 RMK A01 T00131059  RH  059%=      5-min Rain = 0
KBWS 020235Z 23006KT 01/M06 A3036 RMK A01 T00131059  RH  059%=      5-min Rain = 0
KBWS 020236Z 23006KT 01/M06 A3036 RMK A01 T00131059  RH  059%=      5-min Rain = 0
KBWS 020237Z 23006KT 01/M06 A3036 RMK A01 T00121059  RH  059%=      5-min Rain = 0
KBWS 020238Z 23005KT 01/M06 A3036 RMK A01 T00121059  RH  059%=      5-min Rain = 0
KBWS 020239Z 23005KT 01/M06 A3036 RMK A01 T00121059  RH  059%=      5-min Rain = 0
KBWS 020240Z 23005KT 01/M06 A3036 RMK A01 T00121059  RH  059%=      5-min Rain = 0
KBWS 020241Z 23005KT 01/M06 A3036 RMK A01 T00111059  RH  059%=      5-min Rain = 0
KBWS 020242Z 23005KT 01/M06 A3036 RMK A01 T00111060  RH  059%=      5-min Rain = 0
KBWS 020243Z 23005KT 01/M06 A3036 RMK A01 T00101060  RH  059%=      5-min Rain = 0
KBWS 020244Z 23005KT 01/M06 A3036 RMK A01 T00101060  RH  060%=      5-min Rain = 0
KBWS 020245Z 23006KT 01/M06 A3036 RMK A01 T00091060  RH  060%=      5-min Rain = 0
KBWS 020246Z 23006KT 01/M06 A3036 RMK A01 T00091060  RH  060%=      5-min Rain = 0
KBWS 020247Z 23005KT 01/M06 A3036 RMK A01 T00091060  RH  060%=      5-min Rain = 0
KBWS 020248Z 23005KT 01/M06 A3036 RMK A01 T00081061  RH  060%=      5-min Rain = 0
KBWS 020249Z 23006KT 01/M06 A3036 RMK A01 T00081061  RH  060%=      5-min Rain = 0
KBWS 020250Z 23006KT 01/M06 A3036 RMK A01 T00081060  RH  060%=      5-min Rain = 0
KBWS 020251Z 23006KT 01/M06 A3036 RMK A01 T00081060  RH  060%=      5-min Rain = 0
KBWS 020252Z 23006KT 01/M06 A3036 RMK A01 T00091059  RH  060%=      5-min Rain = 0
KBWS 020253Z 23006KT 01/M06 A3036 RMK A01 T00091060  RH  060%=      5-min Rain = 0
KBWS 020254Z 23006KT 01/M06 A3036 RMK A01 T00091060  RH  060%=      5-min Rain = 0
KBWS 020255Z 23006KT 01/M06 A3036 RMK A01 T00091060  RH  060%=      5-min Rain = 0
KBWS 020256Z 24007KT 01/M06 A3036 RMK A01 T00091061  RH  060%=      5-min Rain = 0
KBWS 020257Z 24007KT 01/M06 A3036 RMK A01 T00081061  RH  060%=      5-min Rain = 0
KBWS 020258Z 24007KT 01/M06 A3036 RMK A01 T00071061  RH  060%=      5-min Rain = 0
KBWS 020259Z 24007KT 01/M06 A3036 RMK A01 T00071061  RH  060%=      5-min Rain = 0
KBWS 020300Z 24007KT 01/M06 A3036 RMK A01 T00071061  RH  060%=      5-min Rain = 0
KBWS 020301Z 24007KT 01/M06 A3036 RMK A01 T00071061  RH  060%=      5-min Rain = 0
KBWS 020302Z 24007KT 01/M06 A3036 RMK A01 T00071061  RH  060%=      5-min Rain = 0
KBWS 020303Z 24007KT 01/M06 A3036 RMK A01 T00071061  RH  060%=      5-min Rain = 0
KBWS 020304Z 24007KT 01/M06 A3036 RMK A01 T00071061  RH  060%=      5-min Rain = 0
KBWS 020305Z 24007KT 01/M06 A3036 RMK A01 T00071062  RH  060%=      5-min Rain = 0
KBWS 020306Z 24007KT 01/M06 A3036 RMK A01 T00071062  RH  060%=      5-min Rain = 0
KBWS 020307Z 24007KT 01/M06 A3036 RMK A01 T00071062  RH  060%=      5-min Rain = 0
KBWS 020308Z 24007KT 01/M06 A3036 RMK A01 T00071062  RH  060%=      5-min Rain = 0
KBWS 020309Z 24007KT 01/M06 A3036 RMK A01 T00061062  RH  060%=      5-min Rain = 0
KBWS 020310Z 24007KT 01/M06 A3036 RMK A01 T00061062  RH  060%=      5-min Rain = 0
KBWS 020311Z 24007KT 01/M06 A3036 RMK A01 T00061062  RH  060%=      5-min Rain = 0
KBWS 020312Z 24007KT 01/M06 A3036 RMK A01 T00061062  RH  060%=      5-min Rain = 0
KBWS 020313Z 24007KT 01/M06 A3036 RMK A01 T00061062  RH  060%=      5-min Rain = 0
KBWS 020314Z 24007KT 01/M06 A3036 RMK A01 T00051063  RH  060%=      5-min Rain = 0
KBWS 020315Z 24007KT 00/M06 A3036 RMK A01 T00041063  RH  060%=      5-min Rain = 0
KBWS 020316Z 24007KT 00/M06 A3036 RMK A01 T00031064  RH  060%=      5-min Rain = 0
KBWS 020317Z 24007KT 00/M06 A3036 RMK A01 T00021064  RH  061%=      5-min Rain = 0
KBWS 020318Z 24007KT 00/M07 A3036 RMK A01 T00021065  RH  061%=      5-min Rain = 0
KBWS 020319Z 25007KT 00/M07 A3036 RMK A01 T00011065  RH  061%=      5-min Rain = 0
KBWS 020320Z 25007KT 00/07 A3036 RMK A01 T00000-65  RH  062%=      5-min Rain = 0
KBWS 020321Z 24007KT 00/06 A3036 RMK A01 T00000-64  RH  062%=      5-min Rain = 0
KBWS 020322Z 24007KT 00/06 A3036 RMK A01 T00000-64  RH  062%=      5-min Rain = 0
KBWS 020323Z 24007KT 00/06 A3036 RMK A01 T00000-64  RH  062%=      5-min Rain = 0
KBWS 020324Z 24007KT 00/M06 A3036 RMK A01 T00011063  RH  062%=      5-min Rain = 0
KBWS 020325Z 24007KT 00/M06 A3036 RMK A01 T00011063  RH  062%=      5-min Rain = 0
KBWS 020326Z 24007KT 00/M06 A3036 RMK A01 T00021063  RH  062%=      5-min Rain = 0
KBWS 020327Z 24007KT 00/M06 A3036 RMK A01 T00021063  RH  062%=      5-min Rain = 0
KBWS 020328Z 24007KT 00/M06 A3036 RMK A01 T00021063  RH  062%=      5-min Rain = 0
KBWS 020329Z 24007KT 00/M06 A3036 RMK A01 T00021063  RH  062%=      5-min Rain = 0
KBWS 020330Z 25007KT 00/M06 A3036 RMK A01 T00011063  RH  062%=      5-min Rain = 0
KBWS 020331Z 25007KT 00/M06 A3036 RMK A01 T00011063  RH  062%=      5-min Rain = 0
KBWS 020332Z 25007KT 00/M06 A3036 RMK A01 T00011063  RH  062%=      5-min Rain = 0
KBWS 020333Z 25008KT 00/M06 A3036 RMK A01 T00011063  RH  062%=      5-min Rain = 0
KBWS 020334Z 25008KT 00/M06 A3036 RMK A01 T00011063  RH  062%=      5-min Rain = 0
KBWS 020335Z 25008KT 00/M06 A3036 RMK A01 T00011063  RH  062%=      5-min Rain = 0
KBWS 020336Z 25008KT 00/M06 A3036 RMK A01 T00011063  RH  062%=      5-min Rain = 0
KBWS 020337Z 25008KT 00/M06 A3036 RMK A01 T00011062  RH  062%=      5-min Rain = 0
KBWS 020338Z 25008KT 00/M06 A3036 RMK A01 T00021062  RH  062%=      5-min Rain = 0
KBWS 020339Z 25008KT 00/M06 A3036 RMK A01 T00021062  RH  062%=      5-min Rain = 0
KBWS 020340Z 25008KT 00/M06 A3036 RMK A01 T00021062  RH  062%=      5-min Rain = 0
KBWS 020341Z 24008KT 00/M06 A3036 RMK A01 T00021062  RH  062%=      5-min Rain = 0
KBWS 020342Z 24008KT 00/M06 A3036 RMK A01 T00011064  RH  062%=      5-min Rain = 0
KBWS 020343Z 24008KT 00/06 A3036 RMK A01 T00-00-64  RH  062%=      5-min Rain = 0
KBWS 020344Z 24008KT M00/M06 A3036 RMK A01 T10011064  RH  062%=      5-min Rain = 0
KBWS 020345Z 25008KT M00/M06 A3036 RMK A01 T10011063  RH  063%=      5-min Rain = 0
KBWS 020346Z 25008KT M00/M06 A3036 RMK A01 T10011064  RH  063%=      5-min Rain = 0
KBWS 020347Z 25008KT M00/M06 A3036 RMK A01 T10021064  RH  063%=      5-min Rain = 0
KBWS 020348Z 25008KT M00/M06 A3036 RMK A01 T10021064  RH  063%=      5-min Rain = 0
KBWS 020349Z 25008KT M00/M06 A3036 RMK A01 T10021063  RH  063%=      5-min Rain = 0
KBWS 020350Z 25008KT M00/M06 A3036 RMK A01 T10011063  RH  063%=      5-min Rain = 0
KBWS 020351Z 25008KT M00/M06 A3036 RMK A01 T10011063  RH  063%=      5-min Rain = 0
KBWS 020352Z 25008KT M00/M06 A3036 RMK A01 T10011064  RH  063%=      5-min Rain = 0
KBWS 020353Z 25008KT M00/M06 A3037 RMK A01 T10021064  RH  063%=      5-min Rain = 0
KBWS 020354Z 25009KT M00/M06 A3037 RMK A01 T10021064  RH  063%=      5-min Rain = 0
KBWS 020355Z 25009KT M00/M06 A3037 RMK A01 T10021064  RH  063%=      5-min Rain = 0
KBWS 020356Z 25009KT M00/M06 A3037 RMK A01 T10021064  RH  063%=      5-min Rain = 0
KBWS 020357Z 25009KT M00/M06 A3037 RMK A01 T10021064  RH  063%=      5-min Rain = 0
KBWS 020358Z 25010KT M00/M06 A3037 RMK A01 T10021064  RH  063%=      5-min Rain = 0
KBWS 020359Z 25010KT M00/M06 A3037 RMK A01 T10021064  RH  063%=      5-min Rain = 0
KBWS 020400Z 25010KT M00/M07 A3037 RMK A01 T10011065  RH  062%=      5-min Rain = 0
KBWS 020401Z 25010KT M00/M07 A3037 RMK A01 T10011065  RH  062%=      5-min Rain = 0
KBWS 020402Z 25010KT M00/M07 A3037 RMK A01 T10011066  RH  062%=      5-min Rain = 0
KBWS 020403Z 25010KT M00/M07 A3037 RMK A01 T10021066  RH  062%=      5-min Rain = 0
KBWS 020404Z 25010KT M00/M07 A3037 RMK A01 T10021066  RH  062%=      5-min Rain = 0
KBWS 020405Z 25010KT M00/M07 A3037 RMK A01 T10021066  RH  062%=      5-min Rain = 0
KBWS 020406Z 25010KT M00/M07 A3037 RMK A01 T10021067  RH  061%=      5-min Rain = 0
KBWS 020407Z 25009KT M00/M07 A3037 RMK A01 T10021068  RH  061%=      5-min Rain = 0
KBWS 020408Z 25009KT M00/M07 A3037 RMK A01 T10031069  RH  061%=      5-min Rain = 0
KBWS 020409Z 25009KT M00/M07 A3037 RMK A01 T10041069  RH  062%=      5-min Rain = 0
KBWS 020410Z 25009KT M01/M07 A3037 RMK A01 T10051069  RH  062%=      5-min Rain = 0
KBWS 020411Z 25009KT M01/M07 A3037 RMK A01 T10051069  RH  062%=      5-min Rain = 0
KBWS 020412Z 25008KT M01/M07 A3037 RMK A01 T10051069  RH  062%=      5-min Rain = 0
KBWS 020413Z 25008KT M01/M07 A3037 RMK A01 T10061070  RH  062%=      5-min Rain = 0
KBWS 020414Z 25008KT M01/M07 A3037 RMK A01 T10061070  RH  062%=      5-min Rain = 0
KBWS 020415Z 25008KT M01/M07 A3037 RMK A01 T10071070  RH  062%=      5-min Rain = 0
KBWS 020416Z 25008KT M01/M07 A3037 RMK A01 T10071070  RH  062%=      5-min Rain = 0
KBWS 020417Z 25008KT M01/M07 A3037 RMK A01 T10071070  RH  062%=      5-min Rain = 0
KBWS 020418Z 25008KT M01/M07 A3037 RMK A01 T10081070  RH  062%=      5-min Rain = 0
KBWS 020419Z 25008KT M01/M07 A3037 RMK A01 T10081071  RH  063%=      5-min Rain = 0
KBWS 020420Z 25009KT M01/M07 A3037 RMK A01 T10081070  RH  063%=      5-min Rain = 0
KBWS 020421Z 25008KT M01/M07 A3037 RMK A01 T10081071  RH  063%=      5-min Rain = 0
KBWS 020422Z 25009KT M01/M07 A3037 RMK A01 T10081071  RH  062%=      5-min Rain = 0
KBWS 020423Z 25009KT M01/M07 A3037 RMK A01 T10071070  RH  062%=      5-min Rain = 0
KBWS 020424Z 25009KT M01/M07 A3036 RMK A01 T10071071  RH  062%=      5-min Rain = 0
KBWS 020425Z 25009KT M01/M07 A3036 RMK A01 T10061071  RH  062%=      5-min Rain = 0
KBWS 020426Z 25009KT M01/M07 A3036 RMK A01 T10061071  RH  061%=      5-min Rain = 0
KBWS 020427Z 25009KT M01/M07 A3036 RMK A01 T10061072  RH  061%=      5-min Rain = 0
KBWS 020428Z 25009KT M01/M07 A3036 RMK A01 T10061072  RH  061%=      5-min Rain = 0
KBWS 020429Z 25009KT M01/M07 A3036 RMK A01 T10061073  RH  061%=      5-min Rain = 0
KBWS 020430Z 25009KT M01/M07 A3036 RMK A01 T10061073  RH  061%=      5-min Rain = 0
KBWS 020431Z 25009KT M01/M07 A3036 RMK A01 T10061073  RH  060%=      5-min Rain = 0
KBWS 020432Z 25009KT M01/M07 A3036 RMK A01 T10061073  RH  060%=      5-min Rain = 0
KBWS 020433Z 25009KT M01/M07 A3036 RMK A01 T10061073  RH  060%=      5-min Rain = 0
KBWS 020434Z 25009KT M01/M07 A3036 RMK A01 T10061074  RH  060%=      5-min Rain = 0
KBWS 020435Z 25009KT M01/M07 A3036 RMK A01 T10061074  RH  060%=      5-min Rain = 0
KBWS 020436Z 25009KT M01/M07 A3036 RMK A01 T10061074  RH  060%=      5-min Rain = 0
KBWS 020437Z 25009KT M01/M07 A3036 RMK A01 T10061074  RH  060%=      5-min Rain = 0
KBWS 020438Z 25009KT M01/M08 A3036 RMK A01 T10061075  RH  060%=      5-min Rain = 0
KBWS 020439Z 25009KT M01/M08 A3036 RMK A01 T10061075  RH  060%=      5-min Rain = 0
KBWS 020440Z 25009KT M01/M08 A3036 RMK A01 T10071076  RH  060%=      5-min Rain = 0
KBWS 020441Z 25009KT M01/M08 A3037 RMK A01 T10081076  RH  060%=      5-min Rain = 0
KBWS 020442Z 25009KT M01/M08 A3037 RMK A01 T10091076  RH  060%=      5-min Rain = 0
KBWS 020443Z 25009KT M01/M08 A3037 RMK A01 T10091076  RH  060%=      5-min Rain = 0
KBWS 020444Z 26009KT M01/M08 A3037 RMK A01 T10091076  RH  060%=      5-min Rain = 0
KBWS 020445Z 26009KT M01/M08 A3036 RMK A01 T10081076  RH  060%=      5-min Rain = 0
KBWS 020446Z 26009KT M01/M08 A3036 RMK A01 T10071075  RH  060%=      5-min Rain = 0
KBWS 020447Z 26009KT M00/M07 A3036 RMK A01 T10041074  RH  059%=      5-min Rain = 0
KBWS 020448Z 26008KT M00/M08 A3036 RMK A01 T10041075  RH  059%=      5-min Rain = 0
KBWS 020449Z 26008KT M00/M08 A3036 RMK A01 T10041075  RH  059%=      5-min Rain = 0
KBWS 020450Z 26007KT M00/M08 A3036 RMK A01 T10041075  RH  059%=      5-min Rain = 0
KBWS 020451Z 26008KT M00/M07 A3036 RMK A01 T10041074  RH  059%=      5-min Rain = 0
KBWS 020452Z 26008KT M00/M07 A3036 RMK A01 T10031073  RH  059%=      5-min Rain = 0
KBWS 020453Z 26008KT M00/M07 A3036 RMK A01 T10031073  RH  060%=      5-min Rain = 0
KBWS 020454Z 26008KT M00/M07 A3036 RMK A01 T10031071  RH  060%=      5-min Rain = 0
KBWS 020455Z 27007KT M00/M07 A3036 RMK A01 T10031071  RH  060%=      5-min Rain = 0
KBWS 020456Z 27006KT M00/M07 A3036 RMK A01 T10031071  RH  060%=      5-min Rain = 0
KBWS 020457Z 27007KT M01/M07 A3036 RMK A01 T10051071  RH  061%=      5-min Rain = 0
KBWS 020458Z 27007KT M01/M07 A3036 RMK A01 T10061069  RH  062%=      5-min Rain = 0
KBWS 020459Z 26006KT M01/M07 A3036 RMK A01 T10071069  RH  063%=      5-min Rain = 0
KBWS 020500Z 26007KT M01/M07 A3036 RMK A01 T10081069  RH  063%=      5-min Rain = 0
KBWS 020501Z 27006KT M01/M07 A3036 RMK A01 T10091069  RH  064%=      5-min Rain = 0
KBWS 020502Z 26007KT M01/M07 A3036 RMK A01 T10091068  RH  064%=      5-min Rain = 0
KBWS 020503Z 27007KT M01/M07 A3036 RMK A01 T10091068  RH  064%=      5-min Rain = 0
KBWS 020504Z 26007KT M01/M07 A3036 RMK A01 T10081066  RH  065%=      5-min Rain = 0
KBWS 020505Z 27007KT M01/M07 A3036 RMK A01 T10071066  RH  064%=      5-min Rain = 0
KBWS 020506Z 27006KT M01/M07 A3036 RMK A01 T10071066  RH  064%=      5-min Rain = 0
KBWS 020507Z 27006KT M01/M07 A3035 RMK A01 T10071066  RH  064%=      5-min Rain = 0
KBWS 020508Z 28005KT M01/M07 A3035 RMK A01 T10081066  RH  065%=      5-min Rain = 0
KBWS 020509Z 28005KT M01/M07 A3035 RMK A01 T10091067  RH  064%=      5-min Rain = 0
KBWS 020510Z 28005KT M01/M07 A3035 RMK A01 T10101068  RH  064%=      5-min Rain = 0
KBWS 020511Z 28006KT M01/M07 A3035 RMK A01 T10101069  RH  065%=      5-min Rain = 0
KBWS 020512Z 27006KT M01/M07 A3035 RMK A01 T10111069  RH  065%=      5-min Rain = 0
KBWS 020513Z 27006KT M01/M07 A3035 RMK A01 T10121069  RH  065%=      5-min Rain = 0
KBWS 020514Z 27006KT M01/M07 A3035 RMK A01 T10131069  RH  066%=      5-min Rain = 0
KBWS 020515Z 27006KT M01/M07 A3035 RMK A01 T10131069  RH  066%=      5-min Rain = 0
KBWS 020516Z 26006KT M01/M07 A3035 RMK A01 T10141069  RH  066%=      5-min Rain = 0
KBWS 020517Z 26006KT M01/M07 A3035 RMK A01 T10141068  RH  067%=      5-min Rain = 0
KBWS 020518Z 26005KT M02/M07 A3035 RMK A01 T10151068  RH  067%=      5-min Rain = 0
KBWS 020519Z 26006KT M02/M07 A3035 RMK A01 T10151068  RH  067%=      5-min Rain = 0
KBWS 020520Z 26005KT M02/M07 A3035 RMK A01 T10151068  RH  067%=      5-min Rain = 0
KBWS 020521Z 26006KT M02/M07 A3035 RMK A01 T10151068  RH  067%=      5-min Rain = 0
KBWS 020522Z 27006KT M02/M07 A3035 RMK A01 T10151067  RH  067%=      5-min Rain = 0
KBWS 020523Z 27005KT M02/M07 A3035 RMK A01 T10151067  RH  068%=      5-min Rain = 0
KBWS 020524Z 27006KT M02/M07 A3035 RMK A01 T10151067  RH  068%=      5-min Rain = 0
KBWS 020525Z 27006KT M01/M07 A3035 RMK A01 T10141066  RH  068%=      5-min Rain = 0
KBWS 020526Z 27006KT M01/M07 A3035 RMK A01 T10141066  RH  068%=      5-min Rain = 0
KBWS 020527Z 27006KT M01/M07 A3035 RMK A01 T10141066  RH  068%=      5-min Rain = 0
KBWS 020528Z 27006KT M02/M07 A3035 RMK A01 T10151067  RH  068%=      5-min Rain = 0
KBWS 020529Z 27006KT M01/M07 A3035 RMK A01 T10141066  RH  068%=      5-min Rain = 0
KBWS 020530Z 27006KT M02/M07 A3035 RMK A01 T10151067  RH  068%=      5-min Rain = 0
KBWS 020531Z 27006KT M01/M07 A3035 RMK A01 T10141066  RH  068%=      5-min Rain = 0
KBWS 020532Z 27006KT M02/M07 A3035 RMK A01 T10151066  RH  068%=      5-min Rain = 0
KBWS 020533Z 26007KT M01/M07 A3035 RMK A01 T10141066  RH  068%=      5-min Rain = 0
KBWS 020534Z 26007KT M01/M07 A3035 RMK A01 T10141065  RH  068%=      5-min Rain = 0
KBWS 020535Z 26008KT M01/M07 A3035 RMK A01 T10141065  RH  068%=      5-min Rain = 0
KBWS 020536Z 26008KT M01/M06 A3035 RMK A01 T10121063  RH  069%=      5-min Rain = 0
KBWS 020537Z 26007KT M01/M06 A3035 RMK A01 T10101061  RH  068%=      5-min Rain = 0
KBWS 020538Z 26006KT M01/M06 A3035 RMK A01 T10081062  RH  067%=      5-min Rain = 0
KBWS 020539Z 26006KT M01/M06 A3035 RMK A01 T10091064  RH  066%=      5-min Rain = 0
KBWS 020540Z 26007KT M01/M06 A3035 RMK A01 T10091064  RH  066%=      5-min Rain = 0
KBWS 020541Z 26007KT M01/M07 A3035 RMK A01 T10101065  RH  066%=      5-min Rain = 0
KBWS 020542Z 26007KT M01/M07 A3035 RMK A01 T10111065  RH  067%=      5-min Rain = 0
KBWS 020543Z 26008KT M01/M07 A3035 RMK A01 T10121065  RH  067%=      5-min Rain = 0
KBWS 020544Z 26008KT M01/M06 A3035 RMK A01 T10121064  RH  068%=      5-min Rain = 0
KBWS 020545Z 26008KT M01/M06 A3034 RMK A01 T10111063  RH  068%=      5-min Rain = 0
KBWS 020546Z 26008KT M01/M06 A3034 RMK A01 T10111063  RH  067%=      5-min Rain = 0
KBWS 020547Z 26008KT M01/M06 A3034 RMK A01 T10111063  RH  068%=      5-min Rain = 0
KBWS 020548Z 26007KT M01/M06 A3034 RMK A01 T10111064  RH  068%=      5-min Rain = 0
KBWS 020549Z 26008KT M01/M06 A3034 RMK A01 T10111063  RH  068%=      5-min Rain = 0
KBWS 020550Z 26008KT M01/M06 A3034 RMK A01 T10121063  RH  068%=      5-min Rain = 0
KBWS 020551Z 26007KT M01/M06 A3034 RMK A01 T10121063  RH  068%=      5-min Rain = 0
KBWS 020552Z 26007KT M01/M06 A3034 RMK A01 T10111063  RH  068%=      5-min Rain = 0
KBWS 020553Z 26007KT M01/M06 A3034 RMK A01 T10111063  RH  068%=      5-min Rain = 0
KBWS 020554Z 26007KT M01/M06 A3034 RMK A01 T10121063  RH  068%=      5-min Rain = 0
KBWS 020555Z 26008KT M01/M06 A3034 RMK A01 T10121063  RH  068%=      5-min Rain = 0
KBWS 020556Z 26008KT M01/M06 A3034 RMK A01 T10121063  RH  068%=      5-min Rain = 0
KBWS 020557Z 26008KT M01/M06 A3034 RMK A01 T10121063  RH  068%=      5-min Rain = 0
KBWS 020558Z 26008KT M01/M06 A3034 RMK A01 T10121063  RH  068%=      5-min Rain = 0
KBWS 020559Z 26007KT M01/M06 A3034 RMK A01 T10121063  RH  068%=      5-min Rain = 0

Page generated in 0.0652 seconds.